<?xml version="1.0" encoding="UTF-8" standalone="no" ?>
<gpx xmlns="http://www.topografix.com/GPX/1/1" xmlns:xsi="http://www.w3.org/2001/XMLSchema-instance" xsi:schemaLocation="http://www.topografix.com/GPX/1/1 http://www.topografix.com/GPX/1/1/gpx.xsd" version="1.1" creator="VisuGPX - https://www.visugpx.com">
  <metadata>
    <name>durance cyclo</name>
    <desc><![CDATA[Quelques circuits le long de la durance]]></desc>
  </metadata>
  <trk>
    <name><![CDATA[N°48  Monetier/Ventavon / Lazer/ Upaix /Rourebeau]]></name>
    <trkseg>
      <trkpt lat="44.38528" lon="5.94222">
        <ele>663.9274902</ele>
        <time>2013-04-05T08:46:35Z</time>
      </trkpt>
      <trkpt lat="44.38521" lon="5.9422">
        <ele>664.888916</ele>
        <time>2013-04-05T08:46:54Z</time>
      </trkpt>
      <trkpt lat="44.38521" lon="5.9422">
        <ele>663.4470215</ele>
        <time>2013-04-05T08:46:56Z</time>
      </trkpt>
      <trkpt lat="44.38524" lon="5.94221">
        <ele>660.5629883</ele>
        <time>2013-04-05T08:47:15Z</time>
      </trkpt>
      <trkpt lat="44.38524" lon="5.94221">
        <ele>657.1984863</ele>
        <time>2013-04-05T08:47:16Z</time>
      </trkpt>
      <trkpt lat="44.38524" lon="5.94221">
        <ele>654.3146973</ele>
        <time>2013-04-05T08:47:17Z</time>
      </trkpt>
      <trkpt lat="44.38524" lon="5.94222">
        <ele>650.949707</ele>
        <time>2013-04-05T08:47:18Z</time>
      </trkpt>
      <trkpt lat="44.38524" lon="5.94222">
        <ele>647.1044922</ele>
        <time>2013-04-05T08:47:19Z</time>
      </trkpt>
      <trkpt lat="44.38524" lon="5.94222">
        <ele>641.8173828</ele>
        <time>2013-04-05T08:47:21Z</time>
      </trkpt>
      <trkpt lat="44.38523" lon="5.94222">
        <ele>636.5302734</ele>
        <time>2013-04-05T08:47:23Z</time>
      </trkpt>
      <trkpt lat="44.38523" lon="5.94223">
        <ele>631.7233887</ele>
        <time>2013-04-05T08:47:25Z</time>
      </trkpt>
      <trkpt lat="44.38523" lon="5.94223">
        <ele>626.9169922</ele>
        <time>2013-04-05T08:47:27Z</time>
      </trkpt>
      <trkpt lat="44.38523" lon="5.94223">
        <ele>622.5910645</ele>
        <time>2013-04-05T08:47:29Z</time>
      </trkpt>
      <trkpt lat="44.38523" lon="5.94223">
        <ele>617.7841797</ele>
        <time>2013-04-05T08:47:32Z</time>
      </trkpt>
      <trkpt lat="44.38523" lon="5.94223">
        <ele>613.9389648</ele>
        <time>2013-04-05T08:47:34Z</time>
      </trkpt>
      <trkpt lat="44.38523" lon="5.94223">
        <ele>610.09375</ele>
        <time>2013-04-05T08:47:36Z</time>
      </trkpt>
      <trkpt lat="44.38524" lon="5.94223">
        <ele>606.2485352</ele>
        <time>2013-04-05T08:47:38Z</time>
      </trkpt>
      <trkpt lat="44.38524" lon="5.94223">
        <ele>602.8837891</ele>
        <time>2013-04-05T08:47:41Z</time>
      </trkpt>
      <trkpt lat="44.38524" lon="5.94223">
        <ele>599.5192871</ele>
        <time>2013-04-05T08:47:43Z</time>
      </trkpt>
      <trkpt lat="44.38524" lon="5.94223">
        <ele>595.6740723</ele>
        <time>2013-04-05T08:47:46Z</time>
      </trkpt>
      <trkpt lat="44.38523" lon="5.94223">
        <ele>592.3095703</ele>
        <time>2013-04-05T08:47:50Z</time>
      </trkpt>
      <trkpt lat="44.38523" lon="5.94224">
        <ele>588.4643555</ele>
        <time>2013-04-05T08:47:53Z</time>
      </trkpt>
      <trkpt lat="44.38523" lon="5.94224">
        <ele>585.0996094</ele>
        <time>2013-04-05T08:47:57Z</time>
      </trkpt>
      <trkpt lat="44.38523" lon="5.94224">
        <ele>581.7348633</ele>
        <time>2013-04-05T08:48:02Z</time>
      </trkpt>
      <trkpt lat="44.38523" lon="5.94224">
        <ele>579.8122559</ele>
        <time>2013-04-05T08:48:05Z</time>
      </trkpt>
      <trkpt lat="44.38523" lon="5.94224">
        <ele>576.4477539</ele>
        <time>2013-04-05T08:48:09Z</time>
      </trkpt>
      <trkpt lat="44.38523" lon="5.94224">
        <ele>573.5639648</ele>
        <time>2013-04-05T08:48:16Z</time>
      </trkpt>
      <trkpt lat="44.38523" lon="5.94224">
        <ele>570.1989746</ele>
        <time>2013-04-05T08:48:23Z</time>
      </trkpt>
      <trkpt lat="44.38523" lon="5.94224">
        <ele>568.7570801</ele>
        <time>2013-04-05T08:48:29Z</time>
      </trkpt>
      <trkpt lat="44.38523" lon="5.94224">
        <ele>567.3151855</ele>
        <time>2013-04-05T08:48:35Z</time>
      </trkpt>
      <trkpt lat="44.38523" lon="5.94224">
        <ele>563.9504395</ele>
        <time>2013-04-05T08:48:55Z</time>
      </trkpt>
      <trkpt lat="44.38527" lon="5.94226">
        <ele>562.0280762</ele>
        <time>2013-04-05T08:52:24Z</time>
      </trkpt>
      <trkpt lat="44.3853" lon="5.94227">
        <ele>562.0280762</ele>
        <time>2013-04-05T08:52:26Z</time>
      </trkpt>
      <trkpt lat="44.38525" lon="5.94238">
        <ele>562.0280762</ele>
        <time>2013-04-05T08:52:31Z</time>
      </trkpt>
      <trkpt lat="44.38497" lon="5.94249">
        <ele>561.5473633</ele>
        <time>2013-04-05T08:52:42Z</time>
      </trkpt>
      <trkpt lat="44.38492" lon="5.94243">
        <ele>561.5473633</ele>
        <time>2013-04-05T08:52:46Z</time>
      </trkpt>
      <trkpt lat="44.38491" lon="5.94216">
        <ele>562.0280762</ele>
        <time>2013-04-05T08:52:55Z</time>
      </trkpt>
      <trkpt lat="44.38493" lon="5.9421">
        <ele>562.0280762</ele>
        <time>2013-04-05T08:53:10Z</time>
      </trkpt>
      <trkpt lat="44.38493" lon="5.94208">
        <ele>562.0280762</ele>
        <time>2013-04-05T08:53:21Z</time>
      </trkpt>
      <trkpt lat="44.38495" lon="5.94192">
        <ele>562.0280762</ele>
        <time>2013-04-05T08:53:27Z</time>
      </trkpt>
      <trkpt lat="44.38499" lon="5.94156">
        <ele>561.0666504</ele>
        <time>2013-04-05T08:53:34Z</time>
      </trkpt>
      <trkpt lat="44.38506" lon="5.94076">
        <ele>560.5859375</ele>
        <time>2013-04-05T08:53:48Z</time>
      </trkpt>
      <trkpt lat="44.38508" lon="5.94046">
        <ele>560.1052246</ele>
        <time>2013-04-05T08:53:53Z</time>
      </trkpt>
      <trkpt lat="44.38502" lon="5.93982">
        <ele>558.6633301</ele>
        <time>2013-04-05T08:54:03Z</time>
      </trkpt>
      <trkpt lat="44.3852" lon="5.93936">
        <ele>560.1052246</ele>
        <time>2013-04-05T08:54:12Z</time>
      </trkpt>
      <trkpt lat="44.3856" lon="5.93929">
        <ele>563.4699707</ele>
        <time>2013-04-05T08:54:27Z</time>
      </trkpt>
      <trkpt lat="44.38601" lon="5.9392">
        <ele>566.3537598</ele>
        <time>2013-04-05T08:54:45Z</time>
      </trkpt>
      <trkpt lat="44.3864" lon="5.93913">
        <ele>569.237793</ele>
        <time>2013-04-05T08:55:03Z</time>
      </trkpt>
      <trkpt lat="44.38672" lon="5.93905">
        <ele>572.6025391</ele>
        <time>2013-04-05T08:55:20Z</time>
      </trkpt>
      <trkpt lat="44.38704" lon="5.93892">
        <ele>575.0058594</ele>
        <time>2013-04-05T08:55:37Z</time>
      </trkpt>
      <trkpt lat="44.38696" lon="5.93807">
        <ele>577.8896484</ele>
        <time>2013-04-05T08:55:58Z</time>
      </trkpt>
      <trkpt lat="44.38701" lon="5.93728">
        <ele>580.2929688</ele>
        <time>2013-04-05T08:56:22Z</time>
      </trkpt>
      <trkpt lat="44.38702" lon="5.93714">
        <ele>581.2543945</ele>
        <time>2013-04-05T08:56:26Z</time>
      </trkpt>
      <trkpt lat="44.38705" lon="5.93657">
        <ele>581.7348633</ele>
        <time>2013-04-05T08:56:42Z</time>
      </trkpt>
      <trkpt lat="44.38706" lon="5.93622">
        <ele>582.6962891</ele>
        <time>2013-04-05T08:56:54Z</time>
      </trkpt>
      <trkpt lat="44.38708" lon="5.93605">
        <ele>582.6962891</ele>
        <time>2013-04-05T08:57:00Z</time>
      </trkpt>
      <trkpt lat="44.38712" lon="5.93598">
        <ele>582.6962891</ele>
        <time>2013-04-05T08:57:11Z</time>
      </trkpt>
      <trkpt lat="44.38678" lon="5.93573">
        <ele>582.2155762</ele>
        <time>2013-04-05T08:57:24Z</time>
      </trkpt>
      <trkpt lat="44.38631" lon="5.93542">
        <ele>578.8510742</ele>
        <time>2013-04-05T08:57:33Z</time>
      </trkpt>
      <trkpt lat="44.38566" lon="5.93491">
        <ele>575.4863281</ele>
        <time>2013-04-05T08:57:44Z</time>
      </trkpt>
      <trkpt lat="44.38486" lon="5.93433">
        <ele>575.0058594</ele>
        <time>2013-04-05T08:57:58Z</time>
      </trkpt>
      <trkpt lat="44.38387" lon="5.93364">
        <ele>574.5251465</ele>
        <time>2013-04-05T08:58:18Z</time>
      </trkpt>
      <trkpt lat="44.38302" lon="5.93307">
        <ele>575.4863281</ele>
        <time>2013-04-05T08:58:38Z</time>
      </trkpt>
      <trkpt lat="44.38208" lon="5.93245">
        <ele>576.4477539</ele>
        <time>2013-04-05T08:59:02Z</time>
      </trkpt>
      <trkpt lat="44.38182" lon="5.93226">
        <ele>576.4477539</ele>
        <time>2013-04-05T08:59:09Z</time>
      </trkpt>
      <trkpt lat="44.38107" lon="5.93174">
        <ele>575.967041</ele>
        <time>2013-04-05T08:59:28Z</time>
      </trkpt>
      <trkpt lat="44.38095" lon="5.93154">
        <ele>575.4863281</ele>
        <time>2013-04-05T08:59:32Z</time>
      </trkpt>
      <trkpt lat="44.38062" lon="5.93081">
        <ele>576.4477539</ele>
        <time>2013-04-05T08:59:49Z</time>
      </trkpt>
      <trkpt lat="44.38024" lon="5.93017">
        <ele>576.9284668</ele>
        <time>2013-04-05T09:00:05Z</time>
      </trkpt>
      <trkpt lat="44.37969" lon="5.92942">
        <ele>578.3703613</ele>
        <time>2013-04-05T09:00:25Z</time>
      </trkpt>
      <trkpt lat="44.37936" lon="5.92841">
        <ele>575.967041</ele>
        <time>2013-04-05T09:00:41Z</time>
      </trkpt>
      <trkpt lat="44.37925" lon="5.92808">
        <ele>575.4863281</ele>
        <time>2013-04-05T09:00:46Z</time>
      </trkpt>
      <trkpt lat="44.37911" lon="5.92786">
        <ele>575.4863281</ele>
        <time>2013-04-05T09:00:50Z</time>
      </trkpt>
      <trkpt lat="44.37871" lon="5.92756">
        <ele>579.331543</ele>
        <time>2013-04-05T09:01:03Z</time>
      </trkpt>
      <trkpt lat="44.37828" lon="5.92694">
        <ele>580.7736816</ele>
        <time>2013-04-05T09:01:24Z</time>
      </trkpt>
      <trkpt lat="44.37782" lon="5.92608">
        <ele>581.7348633</ele>
        <time>2013-04-05T09:01:46Z</time>
      </trkpt>
      <trkpt lat="44.37746" lon="5.92523">
        <ele>582.2155762</ele>
        <time>2013-04-05T09:02:07Z</time>
      </trkpt>
      <trkpt lat="44.37721" lon="5.92441">
        <ele>583.1767578</ele>
        <time>2013-04-05T09:02:25Z</time>
      </trkpt>
      <trkpt lat="44.37707" lon="5.92409">
        <ele>582.6962891</ele>
        <time>2013-04-05T09:02:32Z</time>
      </trkpt>
      <trkpt lat="44.37678" lon="5.92359">
        <ele>582.6962891</ele>
        <time>2013-04-05T09:02:43Z</time>
      </trkpt>
      <trkpt lat="44.3767" lon="5.92348">
        <ele>582.2155762</ele>
        <time>2013-04-05T09:02:49Z</time>
      </trkpt>
      <trkpt lat="44.37601" lon="5.92254">
        <ele>579.331543</ele>
        <time>2013-04-05T09:03:04Z</time>
      </trkpt>
      <trkpt lat="44.37578" lon="5.92213">
        <ele>579.331543</ele>
        <time>2013-04-05T09:03:10Z</time>
      </trkpt>
      <trkpt lat="44.37566" lon="5.92184">
        <ele>579.331543</ele>
        <time>2013-04-05T09:03:14Z</time>
      </trkpt>
      <trkpt lat="44.37558" lon="5.9215">
        <ele>579.8122559</ele>
        <time>2013-04-05T09:03:19Z</time>
      </trkpt>
      <trkpt lat="44.3757" lon="5.9209">
        <ele>581.2543945</ele>
        <time>2013-04-05T09:03:31Z</time>
      </trkpt>
      <trkpt lat="44.37589" lon="5.92032">
        <ele>583.6574707</ele>
        <time>2013-04-05T09:03:46Z</time>
      </trkpt>
      <trkpt lat="44.37581" lon="5.91981">
        <ele>585.0996094</ele>
        <time>2013-04-05T09:04:00Z</time>
      </trkpt>
      <trkpt lat="44.3756" lon="5.91954">
        <ele>588.4643555</ele>
        <time>2013-04-05T09:04:14Z</time>
      </trkpt>
      <trkpt lat="44.37535" lon="5.91928">
        <ele>591.3481445</ele>
        <time>2013-04-05T09:04:30Z</time>
      </trkpt>
      <trkpt lat="44.37518" lon="5.91905">
        <ele>594.7126465</ele>
        <time>2013-04-05T09:04:42Z</time>
      </trkpt>
      <trkpt lat="44.37509" lon="5.91883">
        <ele>595.6740723</ele>
        <time>2013-04-05T09:04:51Z</time>
      </trkpt>
      <trkpt lat="44.37488" lon="5.91824">
        <ele>598.5578613</ele>
        <time>2013-04-05T09:05:14Z</time>
      </trkpt>
      <trkpt lat="44.37463" lon="5.91778">
        <ele>600.9611816</ele>
        <time>2013-04-05T09:05:34Z</time>
      </trkpt>
      <trkpt lat="44.37442" lon="5.91733">
        <ele>602.4030762</ele>
        <time>2013-04-05T09:05:50Z</time>
      </trkpt>
      <trkpt lat="44.37424" lon="5.91653">
        <ele>602.4030762</ele>
        <time>2013-04-05T09:06:07Z</time>
      </trkpt>
      <trkpt lat="44.37409" lon="5.91573">
        <ele>603.8452148</ele>
        <time>2013-04-05T09:06:27Z</time>
      </trkpt>
      <trkpt lat="44.37404" lon="5.91513">
        <ele>606.729248</ele>
        <time>2013-04-05T09:06:46Z</time>
      </trkpt>
      <trkpt lat="44.37401" lon="5.91467">
        <ele>610.09375</ele>
        <time>2013-04-05T09:07:02Z</time>
      </trkpt>
      <trkpt lat="44.37391" lon="5.91393">
        <ele>612.0166016</ele>
        <time>2013-04-05T09:07:24Z</time>
      </trkpt>
      <trkpt lat="44.3738" lon="5.91318">
        <ele>612.9777832</ele>
        <time>2013-04-05T09:07:44Z</time>
      </trkpt>
      <trkpt lat="44.37356" lon="5.91249">
        <ele>612.0166016</ele>
        <time>2013-04-05T09:08:01Z</time>
      </trkpt>
      <trkpt lat="44.37308" lon="5.9116">
        <ele>613.4584961</ele>
        <time>2013-04-05T09:08:22Z</time>
      </trkpt>
      <trkpt lat="44.37303" lon="5.91118">
        <ele>616.822998</ele>
        <time>2013-04-05T09:08:35Z</time>
      </trkpt>
      <trkpt lat="44.37293" lon="5.91065">
        <ele>619.2263184</ele>
        <time>2013-04-05T09:08:51Z</time>
      </trkpt>
      <trkpt lat="44.3727" lon="5.9099">
        <ele>621.6296387</ele>
        <time>2013-04-05T09:09:13Z</time>
      </trkpt>
      <trkpt lat="44.37271" lon="5.90932">
        <ele>624.032959</ele>
        <time>2013-04-05T09:09:31Z</time>
      </trkpt>
      <trkpt lat="44.37276" lon="5.9087">
        <ele>626.4362793</ele>
        <time>2013-04-05T09:09:52Z</time>
      </trkpt>
      <trkpt lat="44.37259" lon="5.90813">
        <ele>628.3588867</ele>
        <time>2013-04-05T09:10:10Z</time>
      </trkpt>
      <trkpt lat="44.37234" lon="5.90779">
        <ele>631.7233887</ele>
        <time>2013-04-05T09:10:26Z</time>
      </trkpt>
      <trkpt lat="44.37192" lon="5.90765">
        <ele>633.1652832</ele>
        <time>2013-04-05T09:10:45Z</time>
      </trkpt>
      <trkpt lat="44.37179" lon="5.90735">
        <ele>633.6459961</ele>
        <time>2013-04-05T09:10:55Z</time>
      </trkpt>
      <trkpt lat="44.37202" lon="5.90673">
        <ele>635.0881348</ele>
        <time>2013-04-05T09:11:10Z</time>
      </trkpt>
      <trkpt lat="44.37235" lon="5.90635">
        <ele>636.0495605</ele>
        <time>2013-04-05T09:11:23Z</time>
      </trkpt>
      <trkpt lat="44.37255" lon="5.90577">
        <ele>635.5686035</ele>
        <time>2013-04-05T09:11:36Z</time>
      </trkpt>
      <trkpt lat="44.37256" lon="5.90564">
        <ele>634.6074219</ele>
        <time>2013-04-05T09:11:38Z</time>
      </trkpt>
      <trkpt lat="44.37256" lon="5.90538">
        <ele>633.6459961</ele>
        <time>2013-04-05T09:11:41Z</time>
      </trkpt>
      <trkpt lat="44.3727" lon="5.90491">
        <ele>631.7233887</ele>
        <time>2013-04-05T09:11:46Z</time>
      </trkpt>
      <trkpt lat="44.37268" lon="5.90457">
        <ele>630.2814941</ele>
        <time>2013-04-05T09:11:49Z</time>
      </trkpt>
      <trkpt lat="44.37266" lon="5.90433">
        <ele>628.8395996</ele>
        <time>2013-04-05T09:11:51Z</time>
      </trkpt>
      <trkpt lat="44.3728" lon="5.90371">
        <ele>626.4362793</ele>
        <time>2013-04-05T09:11:56Z</time>
      </trkpt>
      <trkpt lat="44.37291" lon="5.90348">
        <ele>624.9943848</ele>
        <time>2013-04-05T09:11:58Z</time>
      </trkpt>
      <trkpt lat="44.373" lon="5.90326">
        <ele>623.0717773</ele>
        <time>2013-04-05T09:12:00Z</time>
      </trkpt>
      <trkpt lat="44.37315" lon="5.90291">
        <ele>621.6296387</ele>
        <time>2013-04-05T09:12:03Z</time>
      </trkpt>
      <trkpt lat="44.37335" lon="5.90246">
        <ele>618.2648926</ele>
        <time>2013-04-05T09:12:08Z</time>
      </trkpt>
      <trkpt lat="44.37353" lon="5.90234">
        <ele>617.3037109</ele>
        <time>2013-04-05T09:12:12Z</time>
      </trkpt>
      <trkpt lat="44.37373" lon="5.90252">
        <ele>615.8618164</ele>
        <time>2013-04-05T09:12:16Z</time>
      </trkpt>
      <trkpt lat="44.37405" lon="5.90284">
        <ele>614.4196777</ele>
        <time>2013-04-05T09:12:22Z</time>
      </trkpt>
      <trkpt lat="44.37426" lon="5.90303">
        <ele>613.4584961</ele>
        <time>2013-04-05T09:12:29Z</time>
      </trkpt>
      <trkpt lat="44.37423" lon="5.90277">
        <ele>612.9777832</ele>
        <time>2013-04-05T09:12:36Z</time>
      </trkpt>
      <trkpt lat="44.37393" lon="5.90244">
        <ele>612.0166016</ele>
        <time>2013-04-05T09:12:44Z</time>
      </trkpt>
      <trkpt lat="44.37326" lon="5.90158">
        <ele>608.6518555</ele>
        <time>2013-04-05T09:12:59Z</time>
      </trkpt>
      <trkpt lat="44.37307" lon="5.90132">
        <ele>607.2099609</ele>
        <time>2013-04-05T09:13:03Z</time>
      </trkpt>
      <trkpt lat="44.37244" lon="5.90051">
        <ele>604.3261719</ele>
        <time>2013-04-05T09:13:15Z</time>
      </trkpt>
      <trkpt lat="44.37234" lon="5.90035">
        <ele>603.364502</ele>
        <time>2013-04-05T09:13:17Z</time>
      </trkpt>
      <trkpt lat="44.37165" lon="5.89953">
        <ele>602.4030762</ele>
        <time>2013-04-05T09:13:30Z</time>
      </trkpt>
      <trkpt lat="44.37137" lon="5.89948">
        <ele>602.4030762</ele>
        <time>2013-04-05T09:13:35Z</time>
      </trkpt>
      <trkpt lat="44.37098" lon="5.89981">
        <ele>603.8452148</ele>
        <time>2013-04-05T09:13:47Z</time>
      </trkpt>
      <trkpt lat="44.3706" lon="5.9001">
        <ele>606.729248</ele>
        <time>2013-04-05T09:14:02Z</time>
      </trkpt>
      <trkpt lat="44.37002" lon="5.9">
        <ele>608.1713867</ele>
        <time>2013-04-05T09:14:22Z</time>
      </trkpt>
      <trkpt lat="44.36994" lon="5.89997">
        <ele>607.6906738</ele>
        <time>2013-04-05T09:14:24Z</time>
      </trkpt>
      <trkpt lat="44.36926" lon="5.8996">
        <ele>604.8066406</ele>
        <time>2013-04-05T09:14:36Z</time>
      </trkpt>
      <trkpt lat="44.36887" lon="5.89935">
        <ele>602.8837891</ele>
        <time>2013-04-05T09:14:42Z</time>
      </trkpt>
      <trkpt lat="44.36872" lon="5.89925">
        <ele>600.9611816</ele>
        <time>2013-04-05T09:14:44Z</time>
      </trkpt>
      <trkpt lat="44.36802" lon="5.89846">
        <ele>600</ele>
        <time>2013-04-05T09:14:56Z</time>
      </trkpt>
      <trkpt lat="44.36795" lon="5.89833">
        <ele>601.9226074</ele>
        <time>2013-04-05T09:14:59Z</time>
      </trkpt>
      <trkpt lat="44.36775" lon="5.89777">
        <ele>603.364502</ele>
        <time>2013-04-05T09:15:14Z</time>
      </trkpt>
      <trkpt lat="44.36722" lon="5.89689">
        <ele>602.8837891</ele>
        <time>2013-04-05T09:15:34Z</time>
      </trkpt>
      <trkpt lat="44.36655" lon="5.89585">
        <ele>600.9611816</ele>
        <time>2013-04-05T09:15:54Z</time>
      </trkpt>
      <trkpt lat="44.36602" lon="5.89503">
        <ele>601.4418945</ele>
        <time>2013-04-05T09:16:10Z</time>
      </trkpt>
      <trkpt lat="44.36562" lon="5.89434">
        <ele>601.4418945</ele>
        <time>2013-04-05T09:16:26Z</time>
      </trkpt>
      <trkpt lat="44.36543" lon="5.89325">
        <ele>601.4418945</ele>
        <time>2013-04-05T09:16:44Z</time>
      </trkpt>
      <trkpt lat="44.36524" lon="5.89268">
        <ele>603.364502</ele>
        <time>2013-04-05T09:16:59Z</time>
      </trkpt>
      <trkpt lat="44.36499" lon="5.89201">
        <ele>606.2485352</ele>
        <time>2013-04-05T09:17:20Z</time>
      </trkpt>
      <trkpt lat="44.36478" lon="5.89146">
        <ele>606.729248</ele>
        <time>2013-04-05T09:17:36Z</time>
      </trkpt>
      <trkpt lat="44.36462" lon="5.89115">
        <ele>607.6906738</ele>
        <time>2013-04-05T09:17:45Z</time>
      </trkpt>
      <trkpt lat="44.3645" lon="5.89122">
        <ele>607.2099609</ele>
        <time>2013-04-05T09:17:49Z</time>
      </trkpt>
      <trkpt lat="44.36397" lon="5.89161">
        <ele>604.3261719</ele>
        <time>2013-04-05T09:17:59Z</time>
      </trkpt>
      <trkpt lat="44.36332" lon="5.89205">
        <ele>601.9226074</ele>
        <time>2013-04-05T09:18:09Z</time>
      </trkpt>
      <trkpt lat="44.36245" lon="5.8927">
        <ele>600.4807129</ele>
        <time>2013-04-05T09:18:24Z</time>
      </trkpt>
      <trkpt lat="44.36168" lon="5.89326">
        <ele>597.1159668</ele>
        <time>2013-04-05T09:18:42Z</time>
      </trkpt>
      <trkpt lat="44.36159" lon="5.89339">
        <ele>595.6740723</ele>
        <time>2013-04-05T09:18:44Z</time>
      </trkpt>
      <trkpt lat="44.3615" lon="5.8938">
        <ele>593.270752</ele>
        <time>2013-04-05T09:18:49Z</time>
      </trkpt>
      <trkpt lat="44.36148" lon="5.89431">
        <ele>590.3869629</ele>
        <time>2013-04-05T09:18:55Z</time>
      </trkpt>
      <trkpt lat="44.36132" lon="5.89457">
        <ele>588.9450684</ele>
        <time>2013-04-05T09:19:02Z</time>
      </trkpt>
      <trkpt lat="44.36113" lon="5.89427">
        <ele>587.0219727</ele>
        <time>2013-04-05T09:19:08Z</time>
      </trkpt>
      <trkpt lat="44.36078" lon="5.89369">
        <ele>586.060791</ele>
        <time>2013-04-05T09:19:17Z</time>
      </trkpt>
      <trkpt lat="44.3607" lon="5.8935">
        <ele>586.060791</ele>
        <time>2013-04-05T09:19:20Z</time>
      </trkpt>
      <trkpt lat="44.3605" lon="5.89333">
        <ele>585.0996094</ele>
        <time>2013-04-05T09:19:26Z</time>
      </trkpt>
      <trkpt lat="44.35992" lon="5.89349">
        <ele>586.5415039</ele>
        <time>2013-04-05T09:19:45Z</time>
      </trkpt>
      <trkpt lat="44.35954" lon="5.89362">
        <ele>588.9450684</ele>
        <time>2013-04-05T09:20:03Z</time>
      </trkpt>
      <trkpt lat="44.3592" lon="5.89378">
        <ele>592.3095703</ele>
        <time>2013-04-05T09:20:20Z</time>
      </trkpt>
      <trkpt lat="44.35893" lon="5.89396">
        <ele>595.6740723</ele>
        <time>2013-04-05T09:20:36Z</time>
      </trkpt>
      <trkpt lat="44.35859" lon="5.89415">
        <ele>599.0385742</ele>
        <time>2013-04-05T09:20:55Z</time>
      </trkpt>
      <trkpt lat="44.35831" lon="5.89427">
        <ele>600.4807129</ele>
        <time>2013-04-05T09:21:10Z</time>
      </trkpt>
      <trkpt lat="44.35781" lon="5.89432">
        <ele>603.364502</ele>
        <time>2013-04-05T09:21:36Z</time>
      </trkpt>
      <trkpt lat="44.35739" lon="5.89431">
        <ele>605.2873535</ele>
        <time>2013-04-05T09:21:55Z</time>
      </trkpt>
      <trkpt lat="44.35712" lon="5.89449">
        <ele>607.6906738</ele>
        <time>2013-04-05T09:22:11Z</time>
      </trkpt>
      <trkpt lat="44.35702" lon="5.89452">
        <ele>608.1713867</ele>
        <time>2013-04-05T09:22:17Z</time>
      </trkpt>
      <trkpt lat="44.35696" lon="5.89457">
        <ele>607.6906738</ele>
        <time>2013-04-05T09:22:19Z</time>
      </trkpt>
      <trkpt lat="44.35654" lon="5.89496">
        <ele>606.2485352</ele>
        <time>2013-04-05T09:22:29Z</time>
      </trkpt>
      <trkpt lat="44.35638" lon="5.89513">
        <ele>604.8066406</ele>
        <time>2013-04-05T09:22:33Z</time>
      </trkpt>
      <trkpt lat="44.35608" lon="5.89543">
        <ele>606.2485352</ele>
        <time>2013-04-05T09:22:44Z</time>
      </trkpt>
      <trkpt lat="44.35583" lon="5.8959">
        <ele>609.1325684</ele>
        <time>2013-04-05T09:23:03Z</time>
      </trkpt>
      <trkpt lat="44.35574" lon="5.89642">
        <ele>612.0166016</ele>
        <time>2013-04-05T09:23:21Z</time>
      </trkpt>
      <trkpt lat="44.35564" lon="5.89663">
        <ele>612.4970703</ele>
        <time>2013-04-05T09:23:29Z</time>
      </trkpt>
      <trkpt lat="44.3554" lon="5.89655">
        <ele>611.0551758</ele>
        <time>2013-04-05T09:23:37Z</time>
      </trkpt>
      <trkpt lat="44.35534" lon="5.8965">
        <ele>611.0551758</ele>
        <time>2013-04-05T09:23:39Z</time>
      </trkpt>
      <trkpt lat="44.35506" lon="5.89659">
        <ele>609.6132813</ele>
        <time>2013-04-05T09:23:46Z</time>
      </trkpt>
      <trkpt lat="44.35456" lon="5.89686">
        <ele>609.1325684</ele>
        <time>2013-04-05T09:23:58Z</time>
      </trkpt>
      <trkpt lat="44.35409" lon="5.89716">
        <ele>611.5358887</ele>
        <time>2013-04-05T09:24:18Z</time>
      </trkpt>
      <trkpt lat="44.35369" lon="5.89712">
        <ele>615.3811035</ele>
        <time>2013-04-05T09:24:38Z</time>
      </trkpt>
      <trkpt lat="44.35331" lon="5.8968">
        <ele>616.822998</ele>
        <time>2013-04-05T09:24:59Z</time>
      </trkpt>
      <trkpt lat="44.35301" lon="5.89636">
        <ele>619.7070313</ele>
        <time>2013-04-05T09:25:19Z</time>
      </trkpt>
      <trkpt lat="44.35274" lon="5.89622">
        <ele>622.5910645</ele>
        <time>2013-04-05T09:25:35Z</time>
      </trkpt>
      <trkpt lat="44.35269" lon="5.89619">
        <ele>624.032959</ele>
        <time>2013-04-05T09:25:53Z</time>
      </trkpt>
      <trkpt lat="44.35269" lon="5.89619">
        <ele>625.9555664</ele>
        <time>2013-04-05T09:26:25Z</time>
      </trkpt>
      <trkpt lat="44.35269" lon="5.89619">
        <ele>628.8395996</ele>
        <time>2013-04-05T09:26:44Z</time>
      </trkpt>
      <trkpt lat="44.35269" lon="5.89619">
        <ele>632.2041016</ele>
        <time>2013-04-05T09:27:03Z</time>
      </trkpt>
      <trkpt lat="44.35269" lon="5.89619">
        <ele>635.0881348</ele>
        <time>2013-04-05T09:27:22Z</time>
      </trkpt>
      <trkpt lat="44.35186" lon="5.89568">
        <ele>637.972168</ele>
        <time>2013-04-05T09:27:43Z</time>
      </trkpt>
      <trkpt lat="44.35186" lon="5.89568">
        <ele>640.855957</ele>
        <time>2013-04-05T09:28:05Z</time>
      </trkpt>
      <trkpt lat="44.35186" lon="5.89568">
        <ele>644.2207031</ele>
        <time>2013-04-05T09:28:32Z</time>
      </trkpt>
      <trkpt lat="44.35186" lon="5.89568">
        <ele>646.6240234</ele>
        <time>2013-04-05T09:29:01Z</time>
      </trkpt>
      <trkpt lat="44.35107" lon="5.89508">
        <ele>646.6240234</ele>
        <time>2013-04-05T09:29:14Z</time>
      </trkpt>
      <trkpt lat="44.35074" lon="5.89459">
        <ele>647.5852051</ele>
        <time>2013-04-05T09:29:34Z</time>
      </trkpt>
      <trkpt lat="44.35036" lon="5.89413">
        <ele>649.0270996</ele>
        <time>2013-04-05T09:29:55Z</time>
      </trkpt>
      <trkpt lat="44.35036" lon="5.89413">
        <ele>650.4692383</ele>
        <time>2013-04-05T09:30:07Z</time>
      </trkpt>
      <trkpt lat="44.35036" lon="5.89413">
        <ele>653.3532715</ele>
        <time>2013-04-05T09:30:28Z</time>
      </trkpt>
      <trkpt lat="44.35036" lon="5.89413">
        <ele>656.2370605</ele>
        <time>2013-04-05T09:30:47Z</time>
      </trkpt>
      <trkpt lat="44.35036" lon="5.89413">
        <ele>659.6018066</ele>
        <time>2013-04-05T09:31:08Z</time>
      </trkpt>
      <trkpt lat="44.35036" lon="5.89413">
        <ele>662.4855957</ele>
        <time>2013-04-05T09:31:31Z</time>
      </trkpt>
      <trkpt lat="44.34965" lon="5.89334">
        <ele>665.8503418</ele>
        <time>2013-04-05T09:31:54Z</time>
      </trkpt>
      <trkpt lat="44.34965" lon="5.89334">
        <ele>668.734375</ele>
        <time>2013-04-05T09:32:16Z</time>
      </trkpt>
      <trkpt lat="44.34965" lon="5.89334">
        <ele>669.2150879</ele>
        <time>2013-04-05T09:32:20Z</time>
      </trkpt>
      <trkpt lat="44.34965" lon="5.89334">
        <ele>672.5795898</ele>
        <time>2013-04-05T09:32:47Z</time>
      </trkpt>
      <trkpt lat="44.34965" lon="5.89334">
        <ele>673.0603027</ele>
        <time>2013-04-05T09:33:09Z</time>
      </trkpt>
      <trkpt lat="44.34965" lon="5.89334">
        <ele>674.0214844</ele>
        <time>2013-04-05T09:35:06Z</time>
      </trkpt>
      <trkpt lat="44.34965" lon="5.89334">
        <ele>673.0603027</ele>
        <time>2013-04-05T09:35:48Z</time>
      </trkpt>
      <trkpt lat="44.34915" lon="5.89304">
        <ele>675.4633789</ele>
        <time>2013-04-05T09:36:01Z</time>
      </trkpt>
      <trkpt lat="44.34923" lon="5.89284">
        <ele>677.3862305</ele>
        <time>2013-04-05T09:36:10Z</time>
      </trkpt>
      <trkpt lat="44.3491" lon="5.89242">
        <ele>678.828125</ele>
        <time>2013-04-05T09:36:26Z</time>
      </trkpt>
      <trkpt lat="44.34886" lon="5.8922">
        <ele>681.7119141</ele>
        <time>2013-04-05T09:36:41Z</time>
      </trkpt>
      <trkpt lat="44.34858" lon="5.89196">
        <ele>683.1538086</ele>
        <time>2013-04-05T09:36:56Z</time>
      </trkpt>
      <trkpt lat="44.34818" lon="5.89167">
        <ele>684.5961914</ele>
        <time>2013-04-05T09:37:16Z</time>
      </trkpt>
      <trkpt lat="44.34808" lon="5.89156">
        <ele>685.557373</ele>
        <time>2013-04-05T09:37:22Z</time>
      </trkpt>
      <trkpt lat="44.34769" lon="5.89127">
        <ele>688.9221191</ele>
        <time>2013-04-05T09:37:43Z</time>
      </trkpt>
      <trkpt lat="44.34752" lon="5.89122">
        <ele>691.8059082</ele>
        <time>2013-04-05T09:37:52Z</time>
      </trkpt>
      <trkpt lat="44.34727" lon="5.89116">
        <ele>695.1704102</ele>
        <time>2013-04-05T09:38:07Z</time>
      </trkpt>
      <trkpt lat="44.34688" lon="5.89106">
        <ele>697.0930176</ele>
        <time>2013-04-05T09:38:26Z</time>
      </trkpt>
      <trkpt lat="44.34644" lon="5.89087">
        <ele>698.5349121</ele>
        <time>2013-04-05T09:38:45Z</time>
      </trkpt>
      <trkpt lat="44.34602" lon="5.89064">
        <ele>699.015625</ele>
        <time>2013-04-05T09:39:01Z</time>
      </trkpt>
      <trkpt lat="44.34557" lon="5.89038">
        <ele>699.9770508</ele>
        <time>2013-04-05T09:39:19Z</time>
      </trkpt>
      <trkpt lat="44.34517" lon="5.89006">
        <ele>701.8999023</ele>
        <time>2013-04-05T09:39:37Z</time>
      </trkpt>
      <trkpt lat="44.3446" lon="5.88935">
        <ele>703.3417969</ele>
        <time>2013-04-05T09:40:03Z</time>
      </trkpt>
      <trkpt lat="44.34441" lon="5.88912">
        <ele>702.861084</ele>
        <time>2013-04-05T09:40:10Z</time>
      </trkpt>
      <trkpt lat="44.3443" lon="5.88902">
        <ele>702.3803711</ele>
        <time>2013-04-05T09:40:13Z</time>
      </trkpt>
      <trkpt lat="44.34381" lon="5.88869">
        <ele>699.9770508</ele>
        <time>2013-04-05T09:40:23Z</time>
      </trkpt>
      <trkpt lat="44.34345" lon="5.88857">
        <ele>698.0544434</ele>
        <time>2013-04-05T09:40:28Z</time>
      </trkpt>
      <trkpt lat="44.34318" lon="5.88854">
        <ele>698.0544434</ele>
        <time>2013-04-05T09:40:32Z</time>
      </trkpt>
      <trkpt lat="44.34285" lon="5.88863">
        <ele>699.9770508</ele>
        <time>2013-04-05T09:40:41Z</time>
      </trkpt>
      <trkpt lat="44.34224" lon="5.88844">
        <ele>698.5349121</ele>
        <time>2013-04-05T09:40:53Z</time>
      </trkpt>
      <trkpt lat="44.34163" lon="5.88864">
        <ele>699.015625</ele>
        <time>2013-04-05T09:41:09Z</time>
      </trkpt>
      <trkpt lat="44.3415" lon="5.88868">
        <ele>698.5349121</ele>
        <time>2013-04-05T09:41:12Z</time>
      </trkpt>
      <trkpt lat="44.34079" lon="5.88846">
        <ele>698.0544434</ele>
        <time>2013-04-05T09:41:29Z</time>
      </trkpt>
      <trkpt lat="44.34019" lon="5.8883">
        <ele>695.651123</ele>
        <time>2013-04-05T09:41:40Z</time>
      </trkpt>
      <trkpt lat="44.34007" lon="5.88828">
        <ele>694.2092285</ele>
        <time>2013-04-05T09:41:42Z</time>
      </trkpt>
      <trkpt lat="44.33992" lon="5.88825">
        <ele>693.2478027</ele>
        <time>2013-04-05T09:41:46Z</time>
      </trkpt>
      <trkpt lat="44.33947" lon="5.88807">
        <ele>691.3251953</ele>
        <time>2013-04-05T09:41:58Z</time>
      </trkpt>
      <trkpt lat="44.33878" lon="5.88773">
        <ele>688.4414063</ele>
        <time>2013-04-05T09:42:11Z</time>
      </trkpt>
      <trkpt lat="44.3385" lon="5.88735">
        <ele>686.9992676</ele>
        <time>2013-04-05T09:42:18Z</time>
      </trkpt>
      <trkpt lat="44.33807" lon="5.8866">
        <ele>683.1538086</ele>
        <time>2013-04-05T09:42:31Z</time>
      </trkpt>
      <trkpt lat="44.33798" lon="5.88647">
        <ele>682.6733398</ele>
        <time>2013-04-05T09:42:33Z</time>
      </trkpt>
      <trkpt lat="44.3373" lon="5.88556">
        <ele>679.3085938</ele>
        <time>2013-04-05T09:42:45Z</time>
      </trkpt>
      <trkpt lat="44.33673" lon="5.88497">
        <ele>676.9055176</ele>
        <time>2013-04-05T09:42:56Z</time>
      </trkpt>
      <trkpt lat="44.33648" lon="5.88478">
        <ele>674.0214844</ele>
        <time>2013-04-05T09:43:01Z</time>
      </trkpt>
      <trkpt lat="44.33553" lon="5.8842">
        <ele>671.1376953</ele>
        <time>2013-04-05T09:43:18Z</time>
      </trkpt>
      <trkpt lat="44.3352" lon="5.88397">
        <ele>671.1376953</ele>
        <time>2013-04-05T09:43:26Z</time>
      </trkpt>
      <trkpt lat="44.33485" lon="5.88341">
        <ele>671.1376953</ele>
        <time>2013-04-05T09:43:42Z</time>
      </trkpt>
      <trkpt lat="44.33449" lon="5.88298">
        <ele>670.1762695</ele>
        <time>2013-04-05T09:43:56Z</time>
      </trkpt>
      <trkpt lat="44.33412" lon="5.88264">
        <ele>669.6958008</ele>
        <time>2013-04-05T09:44:10Z</time>
      </trkpt>
      <trkpt lat="44.33387" lon="5.8824">
        <ele>668.734375</ele>
        <time>2013-04-05T09:44:16Z</time>
      </trkpt>
      <trkpt lat="44.33337" lon="5.88245">
        <ele>666.8115234</ele>
        <time>2013-04-05T09:44:27Z</time>
      </trkpt>
      <trkpt lat="44.3329" lon="5.88257">
        <ele>665.8503418</ele>
        <time>2013-04-05T09:44:37Z</time>
      </trkpt>
      <trkpt lat="44.33287" lon="5.88257">
        <ele>665.8503418</ele>
        <time>2013-04-05T09:44:38Z</time>
      </trkpt>
      <trkpt lat="44.33282" lon="5.88258">
        <ele>665.8503418</ele>
        <time>2013-04-05T09:44:47Z</time>
      </trkpt>
      <trkpt lat="44.33282" lon="5.88258">
        <ele>665.3696289</ele>
        <time>2013-04-05T09:45:16Z</time>
      </trkpt>
      <trkpt lat="44.33282" lon="5.88258">
        <ele>665.8503418</ele>
        <time>2013-04-05T09:45:24Z</time>
      </trkpt>
      <trkpt lat="44.33287" lon="5.88258">
        <ele>666.3308105</ele>
        <time>2013-04-05T09:45:28Z</time>
      </trkpt>
      <trkpt lat="44.33323" lon="5.88249">
        <ele>666.3308105</ele>
        <time>2013-04-05T09:45:43Z</time>
      </trkpt>
      <trkpt lat="44.33328" lon="5.88248">
        <ele>666.8115234</ele>
        <time>2013-04-05T09:45:45Z</time>
      </trkpt>
      <trkpt lat="44.33344" lon="5.88241">
        <ele>666.8115234</ele>
        <time>2013-04-05T09:45:51Z</time>
      </trkpt>
      <trkpt lat="44.33353" lon="5.8821">
        <ele>665.3696289</ele>
        <time>2013-04-05T09:45:55Z</time>
      </trkpt>
      <trkpt lat="44.33407" lon="5.88097">
        <ele>663.4470215</ele>
        <time>2013-04-05T09:46:12Z</time>
      </trkpt>
      <trkpt lat="44.33417" lon="5.88081">
        <ele>662.9663086</ele>
        <time>2013-04-05T09:46:15Z</time>
      </trkpt>
      <trkpt lat="44.33426" lon="5.88047">
        <ele>663.4470215</ele>
        <time>2013-04-05T09:46:20Z</time>
      </trkpt>
      <trkpt lat="44.3343" lon="5.88013">
        <ele>663.9274902</ele>
        <time>2013-04-05T09:46:25Z</time>
      </trkpt>
      <trkpt lat="44.33448" lon="5.8796">
        <ele>663.9274902</ele>
        <time>2013-04-05T09:46:34Z</time>
      </trkpt>
      <trkpt lat="44.33491" lon="5.87901">
        <ele>664.4082031</ele>
        <time>2013-04-05T09:46:47Z</time>
      </trkpt>
      <trkpt lat="44.33532" lon="5.87875">
        <ele>664.888916</ele>
        <time>2013-04-05T09:46:58Z</time>
      </trkpt>
      <trkpt lat="44.33548" lon="5.87852">
        <ele>665.3696289</ele>
        <time>2013-04-05T09:47:02Z</time>
      </trkpt>
      <trkpt lat="44.33578" lon="5.87766">
        <ele>665.8503418</ele>
        <time>2013-04-05T09:47:17Z</time>
      </trkpt>
      <trkpt lat="44.33597" lon="5.87684">
        <ele>667.2922363</ele>
        <time>2013-04-05T09:47:35Z</time>
      </trkpt>
      <trkpt lat="44.33599" lon="5.8759">
        <ele>667.7727051</ele>
        <time>2013-04-05T09:47:53Z</time>
      </trkpt>
      <trkpt lat="44.33609" lon="5.87509">
        <ele>667.2922363</ele>
        <time>2013-04-05T09:48:09Z</time>
      </trkpt>
      <trkpt lat="44.33616" lon="5.87421">
        <ele>663.9274902</ele>
        <time>2013-04-05T09:48:21Z</time>
      </trkpt>
      <trkpt lat="44.33615" lon="5.87403">
        <ele>662.9663086</ele>
        <time>2013-04-05T09:48:23Z</time>
      </trkpt>
      <trkpt lat="44.33614" lon="5.87378">
        <ele>661.5244141</ele>
        <time>2013-04-05T09:48:26Z</time>
      </trkpt>
      <trkpt lat="44.33629" lon="5.87345">
        <ele>659.6018066</ele>
        <time>2013-04-05T09:48:32Z</time>
      </trkpt>
      <trkpt lat="44.33639" lon="5.87334">
        <ele>658.1599121</ele>
        <time>2013-04-05T09:48:34Z</time>
      </trkpt>
      <trkpt lat="44.33662" lon="5.87309">
        <ele>655.7565918</ele>
        <time>2013-04-05T09:48:39Z</time>
      </trkpt>
      <trkpt lat="44.33666" lon="5.87304">
        <ele>654.795166</ele>
        <time>2013-04-05T09:48:40Z</time>
      </trkpt>
      <trkpt lat="44.33676" lon="5.87281">
        <ele>653.3532715</ele>
        <time>2013-04-05T09:48:44Z</time>
      </trkpt>
      <trkpt lat="44.33676" lon="5.87273">
        <ele>652.3918457</ele>
        <time>2013-04-05T09:48:46Z</time>
      </trkpt>
      <trkpt lat="44.33676" lon="5.8727">
        <ele>652.8725586</ele>
        <time>2013-04-05T09:48:56Z</time>
      </trkpt>
      <trkpt lat="44.33676" lon="5.8727">
        <ele>652.3918457</ele>
        <time>2013-04-05T09:51:48Z</time>
      </trkpt>
      <trkpt lat="44.3371" lon="5.8726">
        <ele>652.8725586</ele>
        <time>2013-04-05T09:51:59Z</time>
      </trkpt>
      <trkpt lat="44.33759" lon="5.87246">
        <ele>654.3146973</ele>
        <time>2013-04-05T09:52:15Z</time>
      </trkpt>
      <trkpt lat="44.33813" lon="5.87241">
        <ele>657.1984863</ele>
        <time>2013-04-05T09:52:32Z</time>
      </trkpt>
      <trkpt lat="44.33852" lon="5.87251">
        <ele>659.1210938</ele>
        <time>2013-04-05T09:52:45Z</time>
      </trkpt>
      <trkpt lat="44.33904" lon="5.87274">
        <ele>660.5629883</ele>
        <time>2013-04-05T09:53:02Z</time>
      </trkpt>
      <trkpt lat="44.33969" lon="5.87306">
        <ele>662.4855957</ele>
        <time>2013-04-05T09:53:22Z</time>
      </trkpt>
      <trkpt lat="44.34016" lon="5.87306">
        <ele>665.3696289</ele>
        <time>2013-04-05T09:53:38Z</time>
      </trkpt>
      <trkpt lat="44.34069" lon="5.87307">
        <ele>667.7727051</ele>
        <time>2013-04-05T09:53:56Z</time>
      </trkpt>
      <trkpt lat="44.34134" lon="5.87334">
        <ele>670.6569824</ele>
        <time>2013-04-05T09:54:18Z</time>
      </trkpt>
      <trkpt lat="44.34186" lon="5.87346">
        <ele>674.0214844</ele>
        <time>2013-04-05T09:54:37Z</time>
      </trkpt>
      <trkpt lat="44.34241" lon="5.87319">
        <ele>675.4633789</ele>
        <time>2013-04-05T09:54:55Z</time>
      </trkpt>
      <trkpt lat="44.34298" lon="5.87282">
        <ele>675.9440918</ele>
        <time>2013-04-05T09:55:13Z</time>
      </trkpt>
      <trkpt lat="44.34355" lon="5.8727">
        <ele>679.3085938</ele>
        <time>2013-04-05T09:55:31Z</time>
      </trkpt>
      <trkpt lat="44.34364" lon="5.87266">
        <ele>680.7507324</ele>
        <time>2013-04-05T09:55:35Z</time>
      </trkpt>
      <trkpt lat="44.34393" lon="5.87256">
        <ele>683.1538086</ele>
        <time>2013-04-05T09:55:45Z</time>
      </trkpt>
      <trkpt lat="44.34429" lon="5.87223">
        <ele>684.5961914</ele>
        <time>2013-04-05T09:56:01Z</time>
      </trkpt>
      <trkpt lat="44.34439" lon="5.87147">
        <ele>682.6733398</ele>
        <time>2013-04-05T09:56:15Z</time>
      </trkpt>
      <trkpt lat="44.34454" lon="5.87044">
        <ele>683.6345215</ele>
        <time>2013-04-05T09:56:36Z</time>
      </trkpt>
      <trkpt lat="44.34446" lon="5.86981">
        <ele>682.192627</ele>
        <time>2013-04-05T09:56:48Z</time>
      </trkpt>
      <trkpt lat="44.34436" lon="5.86951">
        <ele>681.2314453</ele>
        <time>2013-04-05T09:56:52Z</time>
      </trkpt>
      <trkpt lat="44.34433" lon="5.86944">
        <ele>680.7507324</ele>
        <time>2013-04-05T09:56:53Z</time>
      </trkpt>
      <trkpt lat="44.34402" lon="5.86921">
        <ele>677.8666992</ele>
        <time>2013-04-05T09:56:59Z</time>
      </trkpt>
      <trkpt lat="44.34379" lon="5.86919">
        <ele>675.9440918</ele>
        <time>2013-04-05T09:57:02Z</time>
      </trkpt>
      <trkpt lat="44.34372" lon="5.86918">
        <ele>674.0214844</ele>
        <time>2013-04-05T09:57:03Z</time>
      </trkpt>
      <trkpt lat="44.34349" lon="5.869">
        <ele>672.098877</ele>
        <time>2013-04-05T09:57:07Z</time>
      </trkpt>
      <trkpt lat="44.34336" lon="5.86889">
        <ele>671.1376953</ele>
        <time>2013-04-05T09:57:09Z</time>
      </trkpt>
      <trkpt lat="44.34317" lon="5.86868">
        <ele>670.1762695</ele>
        <time>2013-04-05T09:57:13Z</time>
      </trkpt>
      <trkpt lat="44.34315" lon="5.8683">
        <ele>667.7727051</ele>
        <time>2013-04-05T09:57:21Z</time>
      </trkpt>
      <trkpt lat="44.34324" lon="5.86827">
        <ele>666.3308105</ele>
        <time>2013-04-05T09:57:23Z</time>
      </trkpt>
      <trkpt lat="44.34341" lon="5.86831">
        <ele>664.4082031</ele>
        <time>2013-04-05T09:57:26Z</time>
      </trkpt>
      <trkpt lat="44.34392" lon="5.86851">
        <ele>662.005127</ele>
        <time>2013-04-05T09:57:34Z</time>
      </trkpt>
      <trkpt lat="44.34405" lon="5.86856">
        <ele>660.5629883</ele>
        <time>2013-04-05T09:57:36Z</time>
      </trkpt>
      <trkpt lat="44.34424" lon="5.86856">
        <ele>657.1984863</ele>
        <time>2013-04-05T09:57:39Z</time>
      </trkpt>
      <trkpt lat="44.34431" lon="5.86854">
        <ele>655.7565918</ele>
        <time>2013-04-05T09:57:40Z</time>
      </trkpt>
      <trkpt lat="44.34461" lon="5.86841">
        <ele>652.8725586</ele>
        <time>2013-04-05T09:57:45Z</time>
      </trkpt>
      <trkpt lat="44.34466" lon="5.86838">
        <ele>652.8725586</ele>
        <time>2013-04-05T09:57:46Z</time>
      </trkpt>
      <trkpt lat="44.34501" lon="5.86816">
        <ele>649.5078125</ele>
        <time>2013-04-05T09:57:54Z</time>
      </trkpt>
      <trkpt lat="44.3451" lon="5.86811">
        <ele>648.5463867</ele>
        <time>2013-04-05T09:57:58Z</time>
      </trkpt>
      <trkpt lat="44.34507" lon="5.8681">
        <ele>648.065918</ele>
        <time>2013-04-05T09:58:07Z</time>
      </trkpt>
      <trkpt lat="44.34507" lon="5.8681">
        <ele>649.0270996</ele>
        <time>2013-04-05T10:00:02Z</time>
      </trkpt>
      <trkpt lat="44.34496" lon="5.868">
        <ele>647.5852051</ele>
        <time>2013-04-05T10:00:07Z</time>
      </trkpt>
      <trkpt lat="44.34491" lon="5.86792">
        <ele>647.1044922</ele>
        <time>2013-04-05T10:00:09Z</time>
      </trkpt>
      <trkpt lat="44.34488" lon="5.86783">
        <ele>645.6625977</ele>
        <time>2013-04-05T10:00:11Z</time>
      </trkpt>
      <trkpt lat="44.34492" lon="5.8676">
        <ele>643.7399902</ele>
        <time>2013-04-05T10:00:15Z</time>
      </trkpt>
      <trkpt lat="44.34534" lon="5.86729">
        <ele>640.855957</ele>
        <time>2013-04-05T10:00:27Z</time>
      </trkpt>
      <trkpt lat="44.34541" lon="5.86721">
        <ele>639.8947754</ele>
        <time>2013-04-05T10:00:29Z</time>
      </trkpt>
      <trkpt lat="44.34545" lon="5.86717">
        <ele>639.4140625</ele>
        <time>2013-04-05T10:00:30Z</time>
      </trkpt>
      <trkpt lat="44.34557" lon="5.86696">
        <ele>638.9335938</ele>
        <time>2013-04-05T10:00:34Z</time>
      </trkpt>
      <trkpt lat="44.34583" lon="5.86592">
        <ele>636.0495605</ele>
        <time>2013-04-05T10:00:48Z</time>
      </trkpt>
      <trkpt lat="44.34588" lon="5.86564">
        <ele>636.0495605</ele>
        <time>2013-04-05T10:00:52Z</time>
      </trkpt>
      <trkpt lat="44.34593" lon="5.86525">
        <ele>636.0495605</ele>
        <time>2013-04-05T10:00:58Z</time>
      </trkpt>
      <trkpt lat="44.3459" lon="5.8648">
        <ele>636.5302734</ele>
        <time>2013-04-05T10:01:05Z</time>
      </trkpt>
      <trkpt lat="44.34561" lon="5.86366">
        <ele>636.5302734</ele>
        <time>2013-04-05T10:01:23Z</time>
      </trkpt>
      <trkpt lat="44.34503" lon="5.86196">
        <ele>636.0495605</ele>
        <time>2013-04-05T10:01:52Z</time>
      </trkpt>
      <trkpt lat="44.34482" lon="5.86096">
        <ele>635.0881348</ele>
        <time>2013-04-05T10:02:08Z</time>
      </trkpt>
      <trkpt lat="44.34432" lon="5.86032">
        <ele>634.6074219</ele>
        <time>2013-04-05T10:02:22Z</time>
      </trkpt>
      <trkpt lat="44.3441" lon="5.86007">
        <ele>635.0881348</ele>
        <time>2013-04-05T10:02:28Z</time>
      </trkpt>
      <trkpt lat="44.34398" lon="5.85955">
        <ele>634.6074219</ele>
        <time>2013-04-05T10:02:36Z</time>
      </trkpt>
      <trkpt lat="44.34416" lon="5.85815">
        <ele>635.5686035</ele>
        <time>2013-04-05T10:02:56Z</time>
      </trkpt>
      <trkpt lat="44.3444" lon="5.85649">
        <ele>636.0495605</ele>
        <time>2013-04-05T10:03:20Z</time>
      </trkpt>
      <trkpt lat="44.34477" lon="5.85562">
        <ele>635.0881348</ele>
        <time>2013-04-05T10:03:34Z</time>
      </trkpt>
      <trkpt lat="44.34483" lon="5.85524">
        <ele>634.6074219</ele>
        <time>2013-04-05T10:03:40Z</time>
      </trkpt>
      <trkpt lat="44.34464" lon="5.85426">
        <ele>635.0881348</ele>
        <time>2013-04-05T10:03:55Z</time>
      </trkpt>
      <trkpt lat="44.34443" lon="5.85398">
        <ele>634.6074219</ele>
        <time>2013-04-05T10:04:01Z</time>
      </trkpt>
      <trkpt lat="44.34434" lon="5.85355">
        <ele>634.126709</ele>
        <time>2013-04-05T10:04:07Z</time>
      </trkpt>
      <trkpt lat="44.34442" lon="5.8531">
        <ele>632.6848145</ele>
        <time>2013-04-05T10:04:13Z</time>
      </trkpt>
      <trkpt lat="44.34477" lon="5.85199">
        <ele>631.7233887</ele>
        <time>2013-04-05T10:04:30Z</time>
      </trkpt>
      <trkpt lat="44.34512" lon="5.85101">
        <ele>630.762207</ele>
        <time>2013-04-05T10:04:45Z</time>
      </trkpt>
      <trkpt lat="44.34525" lon="5.85051">
        <ele>630.2814941</ele>
        <time>2013-04-05T10:04:52Z</time>
      </trkpt>
      <trkpt lat="44.34577" lon="5.84923">
        <ele>625.9555664</ele>
        <time>2013-04-05T10:05:10Z</time>
      </trkpt>
      <trkpt lat="44.34586" lon="5.84898">
        <ele>624.9943848</ele>
        <time>2013-04-05T10:05:13Z</time>
      </trkpt>
      <trkpt lat="44.34624" lon="5.8479">
        <ele>624.032959</ele>
        <time>2013-04-05T10:05:27Z</time>
      </trkpt>
      <trkpt lat="44.34624" lon="5.84761">
        <ele>624.032959</ele>
        <time>2013-04-05T10:05:32Z</time>
      </trkpt>
      <trkpt lat="44.34621" lon="5.84733">
        <ele>623.5524902</ele>
        <time>2013-04-05T10:05:36Z</time>
      </trkpt>
      <trkpt lat="44.3462" lon="5.84605">
        <ele>623.5524902</ele>
        <time>2013-04-05T10:05:55Z</time>
      </trkpt>
      <trkpt lat="44.34617" lon="5.84479">
        <ele>622.5910645</ele>
        <time>2013-04-05T10:06:14Z</time>
      </trkpt>
      <trkpt lat="44.34616" lon="5.84422">
        <ele>621.6296387</ele>
        <time>2013-04-05T10:06:23Z</time>
      </trkpt>
      <trkpt lat="44.34631" lon="5.84396">
        <ele>622.1103516</ele>
        <time>2013-04-05T10:06:29Z</time>
      </trkpt>
      <trkpt lat="44.34642" lon="5.84381">
        <ele>623.0717773</ele>
        <time>2013-04-05T10:06:35Z</time>
      </trkpt>
      <trkpt lat="44.34646" lon="5.84365">
        <ele>623.5524902</ele>
        <time>2013-04-05T10:06:46Z</time>
      </trkpt>
      <trkpt lat="44.34646" lon="5.84365">
        <ele>624.032959</ele>
        <time>2013-04-05T10:09:06Z</time>
      </trkpt>
      <trkpt lat="44.34646" lon="5.84365">
        <ele>624.032959</ele>
        <time>2013-04-05T10:09:39Z</time>
      </trkpt>
      <trkpt lat="44.34633" lon="5.84319">
        <ele>622.5910645</ele>
        <time>2013-04-05T10:09:51Z</time>
      </trkpt>
      <trkpt lat="44.34608" lon="5.84206">
        <ele>620.668457</ele>
        <time>2013-04-05T10:10:08Z</time>
      </trkpt>
      <trkpt lat="44.3455" lon="5.84117">
        <ele>618.7456055</ele>
        <time>2013-04-05T10:10:25Z</time>
      </trkpt>
      <trkpt lat="44.34471" lon="5.84013">
        <ele>619.7070313</ele>
        <time>2013-04-05T10:10:48Z</time>
      </trkpt>
      <trkpt lat="44.34396" lon="5.83915">
        <ele>619.2263184</ele>
        <time>2013-04-05T10:11:09Z</time>
      </trkpt>
      <trkpt lat="44.34314" lon="5.83811">
        <ele>616.822998</ele>
        <time>2013-04-05T10:11:29Z</time>
      </trkpt>
      <trkpt lat="44.34225" lon="5.83693">
        <ele>613.9389648</ele>
        <time>2013-04-05T10:11:47Z</time>
      </trkpt>
      <trkpt lat="44.34138" lon="5.83597">
        <ele>613.9389648</ele>
        <time>2013-04-05T10:12:04Z</time>
      </trkpt>
      <trkpt lat="44.34031" lon="5.8349">
        <ele>612.0166016</ele>
        <time>2013-04-05T10:12:25Z</time>
      </trkpt>
      <trkpt lat="44.33918" lon="5.83405">
        <ele>609.6132813</ele>
        <time>2013-04-05T10:12:42Z</time>
      </trkpt>
      <trkpt lat="44.33836" lon="5.83388">
        <ele>606.2485352</ele>
        <time>2013-04-05T10:12:52Z</time>
      </trkpt>
      <trkpt lat="44.33683" lon="5.83368">
        <ele>602.8837891</ele>
        <time>2013-04-05T10:13:11Z</time>
      </trkpt>
      <trkpt lat="44.33581" lon="5.83355">
        <ele>599.5192871</ele>
        <time>2013-04-05T10:13:23Z</time>
      </trkpt>
      <trkpt lat="44.33415" lon="5.83354">
        <ele>596.1547852</ele>
        <time>2013-04-05T10:13:43Z</time>
      </trkpt>
      <trkpt lat="44.33255" lon="5.83377">
        <ele>593.270752</ele>
        <time>2013-04-05T10:14:05Z</time>
      </trkpt>
      <trkpt lat="44.33086" lon="5.834">
        <ele>590.3869629</ele>
        <time>2013-04-05T10:14:28Z</time>
      </trkpt>
      <trkpt lat="44.32985" lon="5.83394">
        <ele>590.8674316</ele>
        <time>2013-04-05T10:14:45Z</time>
      </trkpt>
      <trkpt lat="44.32868" lon="5.83389">
        <ele>587.9833984</ele>
        <time>2013-04-05T10:15:04Z</time>
      </trkpt>
      <trkpt lat="44.32837" lon="5.83386">
        <ele>586.5415039</ele>
        <time>2013-04-05T10:15:08Z</time>
      </trkpt>
      <trkpt lat="44.3283" lon="5.83385">
        <ele>586.5415039</ele>
        <time>2013-04-05T10:15:09Z</time>
      </trkpt>
      <trkpt lat="44.32808" lon="5.83377">
        <ele>585.5800781</ele>
        <time>2013-04-05T10:15:12Z</time>
      </trkpt>
      <trkpt lat="44.3269" lon="5.83295">
        <ele>583.6574707</ele>
        <time>2013-04-05T10:15:31Z</time>
      </trkpt>
      <trkpt lat="44.32668" lon="5.83279">
        <ele>584.6188965</ele>
        <time>2013-04-05T10:15:36Z</time>
      </trkpt>
      <trkpt lat="44.32659" lon="5.83293">
        <ele>584.6188965</ele>
        <time>2013-04-05T10:15:40Z</time>
      </trkpt>
      <trkpt lat="44.32645" lon="5.83394">
        <ele>585.0996094</ele>
        <time>2013-04-05T10:15:57Z</time>
      </trkpt>
      <trkpt lat="44.32631" lon="5.83512">
        <ele>585.5800781</ele>
        <time>2013-04-05T10:16:15Z</time>
      </trkpt>
      <trkpt lat="44.32626" lon="5.83558">
        <ele>585.0996094</ele>
        <time>2013-04-05T10:16:21Z</time>
      </trkpt>
      <trkpt lat="44.32628" lon="5.83599">
        <ele>585.0996094</ele>
        <time>2013-04-05T10:16:26Z</time>
      </trkpt>
      <trkpt lat="44.32669" lon="5.83763">
        <ele>586.5415039</ele>
        <time>2013-04-05T10:16:49Z</time>
      </trkpt>
      <trkpt lat="44.32697" lon="5.83914">
        <ele>587.0219727</ele>
        <time>2013-04-05T10:17:11Z</time>
      </trkpt>
      <trkpt lat="44.32712" lon="5.8399">
        <ele>587.5026855</ele>
        <time>2013-04-05T10:17:22Z</time>
      </trkpt>
      <trkpt lat="44.32749" lon="5.84054">
        <ele>587.9833984</ele>
        <time>2013-04-05T10:17:34Z</time>
      </trkpt>
      <trkpt lat="44.3276" lon="5.84077">
        <ele>588.9450684</ele>
        <time>2013-04-05T10:17:38Z</time>
      </trkpt>
      <trkpt lat="44.3278" lon="5.84224">
        <ele>590.8674316</ele>
        <time>2013-04-05T10:18:00Z</time>
      </trkpt>
      <trkpt lat="44.32789" lon="5.84302">
        <ele>594.2321777</ele>
        <time>2013-04-05T10:18:16Z</time>
      </trkpt>
      <trkpt lat="44.32799" lon="5.84383">
        <ele>597.5966797</ele>
        <time>2013-04-05T10:18:35Z</time>
      </trkpt>
      <trkpt lat="44.32805" lon="5.84445">
        <ele>600</ele>
        <time>2013-04-05T10:18:51Z</time>
      </trkpt>
      <trkpt lat="44.3279" lon="5.84524">
        <ele>601.9226074</ele>
        <time>2013-04-05T10:19:09Z</time>
      </trkpt>
      <trkpt lat="44.32768" lon="5.84612">
        <ele>604.3261719</ele>
        <time>2013-04-05T10:19:29Z</time>
      </trkpt>
      <trkpt lat="44.32753" lon="5.84693">
        <ele>606.2485352</ele>
        <time>2013-04-05T10:19:47Z</time>
      </trkpt>
      <trkpt lat="44.32754" lon="5.84772">
        <ele>607.2099609</ele>
        <time>2013-04-05T10:20:04Z</time>
      </trkpt>
      <trkpt lat="44.32757" lon="5.84876">
        <ele>608.6518555</ele>
        <time>2013-04-05T10:20:24Z</time>
      </trkpt>
      <trkpt lat="44.32764" lon="5.84993">
        <ele>610.5744629</ele>
        <time>2013-04-05T10:20:47Z</time>
      </trkpt>
      <trkpt lat="44.32797" lon="5.85028">
        <ele>613.4584961</ele>
        <time>2013-04-05T10:21:01Z</time>
      </trkpt>
      <trkpt lat="44.32847" lon="5.85016">
        <ele>615.3811035</ele>
        <time>2013-04-05T10:21:17Z</time>
      </trkpt>
      <trkpt lat="44.32895" lon="5.85029">
        <ele>615.3811035</ele>
        <time>2013-04-05T10:21:31Z</time>
      </trkpt>
      <trkpt lat="44.32908" lon="5.85045">
        <ele>615.8618164</ele>
        <time>2013-04-05T10:21:35Z</time>
      </trkpt>
      <trkpt lat="44.32944" lon="5.85115">
        <ele>616.3422852</ele>
        <time>2013-04-05T10:21:49Z</time>
      </trkpt>
      <trkpt lat="44.32951" lon="5.8514">
        <ele>615.8618164</ele>
        <time>2013-04-05T10:21:53Z</time>
      </trkpt>
      <trkpt lat="44.32953" lon="5.85258">
        <ele>615.3811035</ele>
        <time>2013-04-05T10:22:11Z</time>
      </trkpt>
      <trkpt lat="44.32951" lon="5.85398">
        <ele>616.3422852</ele>
        <time>2013-04-05T10:22:29Z</time>
      </trkpt>
      <trkpt lat="44.32951" lon="5.85547">
        <ele>617.3037109</ele>
        <time>2013-04-05T10:22:49Z</time>
      </trkpt>
      <trkpt lat="44.32951" lon="5.85561">
        <ele>617.7841797</ele>
        <time>2013-04-05T10:22:51Z</time>
      </trkpt>
      <trkpt lat="44.32945" lon="5.85681">
        <ele>619.7070313</ele>
        <time>2013-04-05T10:23:10Z</time>
      </trkpt>
      <trkpt lat="44.32945" lon="5.8578">
        <ele>620.1877441</ele>
        <time>2013-04-05T10:23:25Z</time>
      </trkpt>
      <trkpt lat="44.32948" lon="5.85948">
        <ele>621.1491699</ele>
        <time>2013-04-05T10:23:51Z</time>
      </trkpt>
      <trkpt lat="44.32956" lon="5.85969">
        <ele>621.6296387</ele>
        <time>2013-04-05T10:23:55Z</time>
      </trkpt>
      <trkpt lat="44.32985" lon="5.8604">
        <ele>622.1103516</ele>
        <time>2013-04-05T10:24:08Z</time>
      </trkpt>
      <trkpt lat="44.32973" lon="5.86107">
        <ele>622.5910645</ele>
        <time>2013-04-05T10:24:19Z</time>
      </trkpt>
      <trkpt lat="44.32903" lon="5.86231">
        <ele>624.032959</ele>
        <time>2013-04-05T10:24:44Z</time>
      </trkpt>
      <trkpt lat="44.32845" lon="5.86356">
        <ele>623.5524902</ele>
        <time>2013-04-05T10:25:04Z</time>
      </trkpt>
      <trkpt lat="44.32842" lon="5.86412">
        <ele>623.5524902</ele>
        <time>2013-04-05T10:25:10Z</time>
      </trkpt>
      <trkpt lat="44.32808" lon="5.8647">
        <ele>623.0717773</ele>
        <time>2013-04-05T10:25:19Z</time>
      </trkpt>
      <trkpt lat="44.32798" lon="5.86478">
        <ele>623.5524902</ele>
        <time>2013-04-05T10:25:21Z</time>
      </trkpt>
      <trkpt lat="44.32754" lon="5.86551">
        <ele>624.032959</ele>
        <time>2013-04-05T10:25:34Z</time>
      </trkpt>
      <trkpt lat="44.32747" lon="5.86586">
        <ele>624.5136719</ele>
        <time>2013-04-05T10:25:39Z</time>
      </trkpt>
      <trkpt lat="44.32761" lon="5.86738">
        <ele>624.5136719</ele>
        <time>2013-04-05T10:25:59Z</time>
      </trkpt>
      <trkpt lat="44.32761" lon="5.86745">
        <ele>624.5136719</ele>
        <time>2013-04-05T10:26:00Z</time>
      </trkpt>
      <trkpt lat="44.32741" lon="5.86858">
        <ele>625.4748535</ele>
        <time>2013-04-05T10:26:17Z</time>
      </trkpt>
      <trkpt lat="44.32706" lon="5.87012">
        <ele>626.4362793</ele>
        <time>2013-04-05T10:26:42Z</time>
      </trkpt>
      <trkpt lat="44.3269" lon="5.87093">
        <ele>628.3588867</ele>
        <time>2013-04-05T10:26:56Z</time>
      </trkpt>
      <trkpt lat="44.32662" lon="5.87125">
        <ele>630.2814941</ele>
        <time>2013-04-05T10:27:05Z</time>
      </trkpt>
      <trkpt lat="44.32603" lon="5.8714">
        <ele>631.2429199</ele>
        <time>2013-04-05T10:27:22Z</time>
      </trkpt>
      <trkpt lat="44.32539" lon="5.87154">
        <ele>631.7233887</ele>
        <time>2013-04-05T10:27:40Z</time>
      </trkpt>
      <trkpt lat="44.32496" lon="5.87184">
        <ele>633.1652832</ele>
        <time>2013-04-05T10:27:55Z</time>
      </trkpt>
      <trkpt lat="44.32459" lon="5.87224">
        <ele>635.0881348</ele>
        <time>2013-04-05T10:28:11Z</time>
      </trkpt>
      <trkpt lat="44.32449" lon="5.87302">
        <ele>635.5686035</ele>
        <time>2013-04-05T10:28:27Z</time>
      </trkpt>
      <trkpt lat="44.32438" lon="5.87405">
        <ele>636.0495605</ele>
        <time>2013-04-05T10:28:46Z</time>
      </trkpt>
      <trkpt lat="44.32437" lon="5.87428">
        <ele>636.5302734</ele>
        <time>2013-04-05T10:28:50Z</time>
      </trkpt>
      <trkpt lat="44.32444" lon="5.87456">
        <ele>636.5302734</ele>
        <time>2013-04-05T10:28:55Z</time>
      </trkpt>
      <trkpt lat="44.32471" lon="5.87505">
        <ele>637.0107422</ele>
        <time>2013-04-05T10:29:06Z</time>
      </trkpt>
      <trkpt lat="44.32493" lon="5.87538">
        <ele>637.0107422</ele>
        <time>2013-04-05T10:29:14Z</time>
      </trkpt>
      <trkpt lat="44.32516" lon="5.87572">
        <ele>637.0107422</ele>
        <time>2013-04-05T10:29:22Z</time>
      </trkpt>
      <trkpt lat="44.3252" lon="5.87583">
        <ele>637.4914551</ele>
        <time>2013-04-05T10:29:24Z</time>
      </trkpt>
      <trkpt lat="44.32524" lon="5.87618">
        <ele>637.4914551</ele>
        <time>2013-04-05T10:29:30Z</time>
      </trkpt>
      <trkpt lat="44.32516" lon="5.87724">
        <ele>639.8947754</ele>
        <time>2013-04-05T10:29:51Z</time>
      </trkpt>
      <trkpt lat="44.32509" lon="5.87819">
        <ele>643.2592773</ele>
        <time>2013-04-05T10:30:13Z</time>
      </trkpt>
      <trkpt lat="44.32503" lon="5.87913">
        <ele>645.1818848</ele>
        <time>2013-04-05T10:30:35Z</time>
      </trkpt>
      <trkpt lat="44.32481" lon="5.88002">
        <ele>647.5852051</ele>
        <time>2013-04-05T10:30:56Z</time>
      </trkpt>
      <trkpt lat="44.32429" lon="5.88072">
        <ele>648.5463867</ele>
        <time>2013-04-05T10:31:18Z</time>
      </trkpt>
      <trkpt lat="44.32414" lon="5.88116">
        <ele>649.5078125</ele>
        <time>2013-04-05T10:31:29Z</time>
      </trkpt>
      <trkpt lat="44.32396" lon="5.88182">
        <ele>651.4304199</ele>
        <time>2013-04-05T10:31:46Z</time>
      </trkpt>
      <trkpt lat="44.32387" lon="5.88207">
        <ele>652.8725586</ele>
        <time>2013-04-05T10:31:53Z</time>
      </trkpt>
      <trkpt lat="44.3238" lon="5.88222">
        <ele>653.8339844</ele>
        <time>2013-04-05T10:31:57Z</time>
      </trkpt>
      <trkpt lat="44.3234" lon="5.88251">
        <ele>656.2370605</ele>
        <time>2013-04-05T10:32:14Z</time>
      </trkpt>
      <trkpt lat="44.32316" lon="5.88244">
        <ele>658.1599121</ele>
        <time>2013-04-05T10:32:26Z</time>
      </trkpt>
      <trkpt lat="44.32313" lon="5.88196">
        <ele>660.5629883</ele>
        <time>2013-04-05T10:32:41Z</time>
      </trkpt>
      <trkpt lat="44.3231" lon="5.88148">
        <ele>663.9274902</ele>
        <time>2013-04-05T10:32:57Z</time>
      </trkpt>
      <trkpt lat="44.3231" lon="5.88114">
        <ele>665.8503418</ele>
        <time>2013-04-05T10:33:09Z</time>
      </trkpt>
      <trkpt lat="44.32296" lon="5.88113">
        <ele>666.3308105</ele>
        <time>2013-04-05T10:33:15Z</time>
      </trkpt>
      <trkpt lat="44.32274" lon="5.88156">
        <ele>669.2150879</ele>
        <time>2013-04-05T10:33:32Z</time>
      </trkpt>
      <trkpt lat="44.32239" lon="5.88198">
        <ele>670.1762695</ele>
        <time>2013-04-05T10:33:52Z</time>
      </trkpt>
      <trkpt lat="44.3223" lon="5.88181">
        <ele>671.1376953</ele>
        <time>2013-04-05T10:33:59Z</time>
      </trkpt>
      <trkpt lat="44.32232" lon="5.88168">
        <ele>672.098877</ele>
        <time>2013-04-05T10:34:03Z</time>
      </trkpt>
      <trkpt lat="44.32223" lon="5.88109">
        <ele>674.9829102</ele>
        <time>2013-04-05T10:34:24Z</time>
      </trkpt>
      <trkpt lat="44.32212" lon="5.88067">
        <ele>676.4248047</ele>
        <time>2013-04-05T10:34:40Z</time>
      </trkpt>
      <trkpt lat="44.32203" lon="5.88025">
        <ele>679.3085938</ele>
        <time>2013-04-05T10:34:56Z</time>
      </trkpt>
      <trkpt lat="44.322" lon="5.88015">
        <ele>679.7893066</ele>
        <time>2013-04-05T10:35:00Z</time>
      </trkpt>
      <trkpt lat="44.32189" lon="5.87976">
        <ele>683.1538086</ele>
        <time>2013-04-05T10:35:16Z</time>
      </trkpt>
      <trkpt lat="44.32176" lon="5.87939">
        <ele>686.5187988</ele>
        <time>2013-04-05T10:35:34Z</time>
      </trkpt>
      <trkpt lat="44.32163" lon="5.87924">
        <ele>687.9606934</ele>
        <time>2013-04-05T10:35:43Z</time>
      </trkpt>
      <trkpt lat="44.3217" lon="5.87914">
        <ele>689.4025879</ele>
        <time>2013-04-05T10:35:54Z</time>
      </trkpt>
      <trkpt lat="44.32174" lon="5.87915">
        <ele>689.4025879</ele>
        <time>2013-04-05T10:35:56Z</time>
      </trkpt>
      <trkpt lat="44.32208" lon="5.87915">
        <ele>691.8059082</ele>
        <time>2013-04-05T10:36:15Z</time>
      </trkpt>
      <trkpt lat="44.32214" lon="5.87886">
        <ele>695.651123</ele>
        <time>2013-04-05T10:36:27Z</time>
      </trkpt>
      <trkpt lat="44.32193" lon="5.87837">
        <ele>697.5737305</ele>
        <time>2013-04-05T10:36:50Z</time>
      </trkpt>
      <trkpt lat="44.32166" lon="5.87793">
        <ele>700.4580078</ele>
        <time>2013-04-05T10:37:12Z</time>
      </trkpt>
      <trkpt lat="44.32146" lon="5.87756">
        <ele>702.861084</ele>
        <time>2013-04-05T10:37:30Z</time>
      </trkpt>
      <trkpt lat="44.3213" lon="5.87733">
        <ele>704.7836914</ele>
        <time>2013-04-05T10:37:44Z</time>
      </trkpt>
      <trkpt lat="44.32117" lon="5.87772">
        <ele>708.1484375</ele>
        <time>2013-04-05T10:38:02Z</time>
      </trkpt>
      <trkpt lat="44.32093" lon="5.87813">
        <ele>709.590332</ele>
        <time>2013-04-05T10:38:21Z</time>
      </trkpt>
      <trkpt lat="44.32058" lon="5.87831">
        <ele>711.9936523</ele>
        <time>2013-04-05T10:38:39Z</time>
      </trkpt>
      <trkpt lat="44.32028" lon="5.87819">
        <ele>714.3967285</ele>
        <time>2013-04-05T10:38:55Z</time>
      </trkpt>
      <trkpt lat="44.31997" lon="5.87776">
        <ele>717.2810059</ele>
        <time>2013-04-05T10:39:17Z</time>
      </trkpt>
      <trkpt lat="44.31982" lon="5.8774">
        <ele>719.2036133</ele>
        <time>2013-04-05T10:39:32Z</time>
      </trkpt>
      <trkpt lat="44.3197" lon="5.87692">
        <ele>721.6066895</ele>
        <time>2013-04-05T10:39:51Z</time>
      </trkpt>
      <trkpt lat="44.31962" lon="5.87647">
        <ele>724.4907227</ele>
        <time>2013-04-05T10:40:10Z</time>
      </trkpt>
      <trkpt lat="44.31957" lon="5.87602">
        <ele>727.8552246</ele>
        <time>2013-04-05T10:40:29Z</time>
      </trkpt>
      <trkpt lat="44.31949" lon="5.87557">
        <ele>730.2585449</ele>
        <time>2013-04-05T10:40:48Z</time>
      </trkpt>
      <trkpt lat="44.31948" lon="5.87536">
        <ele>732.1813965</ele>
        <time>2013-04-05T10:40:56Z</time>
      </trkpt>
      <trkpt lat="44.31962" lon="5.87513">
        <ele>735.0654297</ele>
        <time>2013-04-05T10:41:09Z</time>
      </trkpt>
      <trkpt lat="44.31964" lon="5.87507">
        <ele>736.0266113</ele>
        <time>2013-04-05T10:41:12Z</time>
      </trkpt>
      <trkpt lat="44.31951" lon="5.87495">
        <ele>737.9492188</ele>
        <time>2013-04-05T10:41:22Z</time>
      </trkpt>
      <trkpt lat="44.3195" lon="5.87496">
        <ele>737.9492188</ele>
        <time>2013-04-05T10:41:37Z</time>
      </trkpt>
      <trkpt lat="44.3195" lon="5.87496">
        <ele>737.9492188</ele>
        <time>2013-04-05T10:42:16Z</time>
      </trkpt>
      <trkpt lat="44.3195" lon="5.87496">
        <ele>737.4685059</ele>
        <time>2013-04-05T10:42:47Z</time>
      </trkpt>
      <trkpt lat="44.3195" lon="5.87496">
        <ele>736.5073242</ele>
        <time>2013-04-05T10:43:27Z</time>
      </trkpt>
      <trkpt lat="44.3195" lon="5.87496">
        <ele>736.5073242</ele>
        <time>2013-04-05T10:43:45Z</time>
      </trkpt>
      <trkpt lat="44.31956" lon="5.87494">
        <ele>736.5073242</ele>
        <time>2013-04-05T10:43:48Z</time>
      </trkpt>
      <trkpt lat="44.31968" lon="5.87478">
        <ele>736.5073242</ele>
        <time>2013-04-05T10:43:59Z</time>
      </trkpt>
      <trkpt lat="44.31977" lon="5.87465">
        <ele>737.4685059</ele>
        <time>2013-04-05T10:44:05Z</time>
      </trkpt>
      <trkpt lat="44.31983" lon="5.87454">
        <ele>738.9106445</ele>
        <time>2013-04-05T10:44:10Z</time>
      </trkpt>
      <trkpt lat="44.31981" lon="5.87445">
        <ele>740.3525391</ele>
        <time>2013-04-05T10:44:18Z</time>
      </trkpt>
      <trkpt lat="44.31979" lon="5.87426">
        <ele>740.8330078</ele>
        <time>2013-04-05T10:44:20Z</time>
      </trkpt>
      <trkpt lat="44.31994" lon="5.87441">
        <ele>742.7558594</ele>
        <time>2013-04-05T10:44:27Z</time>
      </trkpt>
      <trkpt lat="44.31928" lon="5.87427">
        <ele>746.1203613</ele>
        <time>2013-04-05T10:44:40Z</time>
      </trkpt>
      <trkpt lat="44.31926" lon="5.87394">
        <ele>749.4851074</ele>
        <time>2013-04-05T10:44:57Z</time>
      </trkpt>
      <trkpt lat="44.3189" lon="5.87393">
        <ele>750.927002</ele>
        <time>2013-04-05T10:45:15Z</time>
      </trkpt>
      <trkpt lat="44.31868" lon="5.87423">
        <ele>754.291748</ele>
        <time>2013-04-05T10:45:28Z</time>
      </trkpt>
      <trkpt lat="44.31859" lon="5.87434">
        <ele>755.7336426</ele>
        <time>2013-04-05T10:45:34Z</time>
      </trkpt>
      <trkpt lat="44.31867" lon="5.87453">
        <ele>756.2141113</ele>
        <time>2013-04-05T10:45:41Z</time>
      </trkpt>
      <trkpt lat="44.31892" lon="5.87438">
        <ele>758.1369629</ele>
        <time>2013-04-05T10:45:55Z</time>
      </trkpt>
      <trkpt lat="44.31928" lon="5.87427">
        <ele>760.0593262</ele>
        <time>2013-04-05T10:46:16Z</time>
      </trkpt>
      <trkpt lat="44.31928" lon="5.87427">
        <ele>760.0593262</ele>
        <time>2013-04-05T10:46:17Z</time>
      </trkpt>
      <trkpt lat="44.31928" lon="5.87427">
        <ele>761.020752</ele>
        <time>2013-04-05T10:46:31Z</time>
      </trkpt>
      <trkpt lat="44.31928" lon="5.87427">
        <ele>760.0593262</ele>
        <time>2013-04-05T10:47:13Z</time>
      </trkpt>
      <trkpt lat="44.31928" lon="5.87427">
        <ele>760.0593262</ele>
        <time>2013-04-05T10:47:54Z</time>
      </trkpt>
      <trkpt lat="44.31928" lon="5.87427">
        <ele>759.5788574</ele>
        <time>2013-04-05T10:48:36Z</time>
      </trkpt>
      <trkpt lat="44.31928" lon="5.87427">
        <ele>759.0981445</ele>
        <time>2013-04-05T10:49:10Z</time>
      </trkpt>
      <trkpt lat="44.31928" lon="5.87427">
        <ele>759.0981445</ele>
        <time>2013-04-05T10:49:57Z</time>
      </trkpt>
      <trkpt lat="44.31928" lon="5.87427">
        <ele>760.5400391</ele>
        <time>2013-04-05T10:50:11Z</time>
      </trkpt>
      <trkpt lat="44.31928" lon="5.87427">
        <ele>760.0593262</ele>
        <time>2013-04-05T10:50:37Z</time>
      </trkpt>
      <trkpt lat="44.31928" lon="5.87427">
        <ele>759.0981445</ele>
        <time>2013-04-05T10:50:45Z</time>
      </trkpt>
      <trkpt lat="44.31928" lon="5.87427">
        <ele>758.6174316</ele>
        <time>2013-04-05T10:51:30Z</time>
      </trkpt>
      <trkpt lat="44.31928" lon="5.87427">
        <ele>759.0981445</ele>
        <time>2013-04-05T10:52:00Z</time>
      </trkpt>
      <trkpt lat="44.31928" lon="5.87427">
        <ele>761.020752</ele>
        <time>2013-04-05T11:01:41Z</time>
      </trkpt>
      <trkpt lat="44.31908" lon="5.8743">
        <ele>760.0593262</ele>
        <time>2013-04-05T11:01:52Z</time>
      </trkpt>
      <trkpt lat="44.31882" lon="5.87447">
        <ele>758.1369629</ele>
        <time>2013-04-05T11:02:05Z</time>
      </trkpt>
      <trkpt lat="44.31858" lon="5.87436">
        <ele>756.6948242</ele>
        <time>2013-04-05T11:02:16Z</time>
      </trkpt>
      <trkpt lat="44.31859" lon="5.87434">
        <ele>756.2141113</ele>
        <time>2013-04-05T11:02:17Z</time>
      </trkpt>
      <trkpt lat="44.31867" lon="5.87424">
        <ele>754.7722168</ele>
        <time>2013-04-05T11:02:21Z</time>
      </trkpt>
      <trkpt lat="44.31874" lon="5.87419">
        <ele>754.7722168</ele>
        <time>2013-04-05T11:02:23Z</time>
      </trkpt>
      <trkpt lat="44.31896" lon="5.87405">
        <ele>751.4077148</ele>
        <time>2013-04-05T11:02:29Z</time>
      </trkpt>
      <trkpt lat="44.31901" lon="5.87401">
        <ele>750.927002</ele>
        <time>2013-04-05T11:02:31Z</time>
      </trkpt>
      <trkpt lat="44.319" lon="5.87392">
        <ele>749.0043945</ele>
        <time>2013-04-05T11:02:36Z</time>
      </trkpt>
      <trkpt lat="44.31896" lon="5.87393">
        <ele>749.4851074</ele>
        <time>2013-04-05T11:02:47Z</time>
      </trkpt>
      <trkpt lat="44.31876" lon="5.87394">
        <ele>746.1203613</ele>
        <time>2013-04-05T11:02:54Z</time>
      </trkpt>
      <trkpt lat="44.31872" lon="5.87394">
        <ele>746.1203613</ele>
        <time>2013-04-05T11:02:55Z</time>
      </trkpt>
      <trkpt lat="44.31857" lon="5.87396">
        <ele>744.6782227</ele>
        <time>2013-04-05T11:02:58Z</time>
      </trkpt>
      <trkpt lat="44.31838" lon="5.87395">
        <ele>742.7558594</ele>
        <time>2013-04-05T11:03:02Z</time>
      </trkpt>
      <trkpt lat="44.31823" lon="5.8739">
        <ele>740.3525391</ele>
        <time>2013-04-05T11:03:06Z</time>
      </trkpt>
      <trkpt lat="44.31813" lon="5.87388">
        <ele>738.4299316</ele>
        <time>2013-04-05T11:03:09Z</time>
      </trkpt>
      <trkpt lat="44.31786" lon="5.87378">
        <ele>736.0266113</ele>
        <time>2013-04-05T11:03:21Z</time>
      </trkpt>
      <trkpt lat="44.3178" lon="5.87378">
        <ele>736.5073242</ele>
        <time>2013-04-05T11:03:24Z</time>
      </trkpt>
      <trkpt lat="44.31779" lon="5.87378">
        <ele>736.0266113</ele>
        <time>2013-04-05T11:03:31Z</time>
      </trkpt>
      <trkpt lat="44.31775" lon="5.87378">
        <ele>736.0266113</ele>
        <time>2013-04-05T11:03:35Z</time>
      </trkpt>
      <trkpt lat="44.31763" lon="5.87373">
        <ele>735.0654297</ele>
        <time>2013-04-05T11:03:41Z</time>
      </trkpt>
      <trkpt lat="44.31756" lon="5.8738">
        <ele>733.1425781</ele>
        <time>2013-04-05T11:03:46Z</time>
      </trkpt>
      <trkpt lat="44.31746" lon="5.87419">
        <ele>730.2585449</ele>
        <time>2013-04-05T11:03:54Z</time>
      </trkpt>
      <trkpt lat="44.31743" lon="5.8743">
        <ele>730.2585449</ele>
        <time>2013-04-05T11:03:56Z</time>
      </trkpt>
      <trkpt lat="44.31736" lon="5.87453">
        <ele>731.2199707</ele>
        <time>2013-04-05T11:04:01Z</time>
      </trkpt>
      <trkpt lat="44.31735" lon="5.8747">
        <ele>733.1425781</ele>
        <time>2013-04-05T11:04:09Z</time>
      </trkpt>
      <trkpt lat="44.31735" lon="5.8747">
        <ele>732.6621094</ele>
        <time>2013-04-05T11:04:16Z</time>
      </trkpt>
      <trkpt lat="44.31735" lon="5.87461">
        <ele>732.6621094</ele>
        <time>2013-04-05T11:04:21Z</time>
      </trkpt>
      <trkpt lat="44.31745" lon="5.87422">
        <ele>731.2199707</ele>
        <time>2013-04-05T11:04:30Z</time>
      </trkpt>
      <trkpt lat="44.31756" lon="5.87376">
        <ele>732.6621094</ele>
        <time>2013-04-05T11:04:44Z</time>
      </trkpt>
      <trkpt lat="44.3176" lon="5.87354">
        <ele>731.7004395</ele>
        <time>2013-04-05T11:04:51Z</time>
      </trkpt>
      <trkpt lat="44.31748" lon="5.87343">
        <ele>729.777832</ele>
        <time>2013-04-05T11:04:57Z</time>
      </trkpt>
      <trkpt lat="44.31747" lon="5.87346">
        <ele>729.2971191</ele>
        <time>2013-04-05T11:04:58Z</time>
      </trkpt>
      <trkpt lat="44.31744" lon="5.87354">
        <ele>728.8166504</ele>
        <time>2013-04-05T11:05:02Z</time>
      </trkpt>
      <trkpt lat="44.31744" lon="5.87355">
        <ele>728.8166504</ele>
        <time>2013-04-05T11:05:08Z</time>
      </trkpt>
      <trkpt lat="44.31753" lon="5.87338">
        <ele>729.2971191</ele>
        <time>2013-04-05T11:05:13Z</time>
      </trkpt>
      <trkpt lat="44.3176" lon="5.87352">
        <ele>732.1813965</ele>
        <time>2013-04-05T11:05:20Z</time>
      </trkpt>
      <trkpt lat="44.31759" lon="5.87359">
        <ele>732.6621094</ele>
        <time>2013-04-05T11:05:23Z</time>
      </trkpt>
      <trkpt lat="44.31758" lon="5.87363">
        <ele>733.623291</ele>
        <time>2013-04-05T11:05:25Z</time>
      </trkpt>
      <trkpt lat="44.31764" lon="5.87373">
        <ele>734.5847168</ele>
        <time>2013-04-05T11:05:32Z</time>
      </trkpt>
      <trkpt lat="44.31767" lon="5.87372">
        <ele>735.0654297</ele>
        <time>2013-04-05T11:05:34Z</time>
      </trkpt>
      <trkpt lat="44.31774" lon="5.87373">
        <ele>736.0266113</ele>
        <time>2013-04-05T11:05:38Z</time>
      </trkpt>
      <trkpt lat="44.31775" lon="5.87388">
        <ele>736.0266113</ele>
        <time>2013-04-05T11:05:44Z</time>
      </trkpt>
      <trkpt lat="44.31771" lon="5.87462">
        <ele>734.5847168</ele>
        <time>2013-04-05T11:06:05Z</time>
      </trkpt>
      <trkpt lat="44.31771" lon="5.87467">
        <ele>734.1040039</ele>
        <time>2013-04-05T11:06:07Z</time>
      </trkpt>
      <trkpt lat="44.31768" lon="5.8747">
        <ele>733.623291</ele>
        <time>2013-04-05T11:06:11Z</time>
      </trkpt>
      <trkpt lat="44.31741" lon="5.87481">
        <ele>732.1813965</ele>
        <time>2013-04-05T11:06:22Z</time>
      </trkpt>
      <trkpt lat="44.31733" lon="5.87488">
        <ele>731.2199707</ele>
        <time>2013-04-05T11:06:24Z</time>
      </trkpt>
      <trkpt lat="44.31723" lon="5.87498">
        <ele>728.8166504</ele>
        <time>2013-04-05T11:06:27Z</time>
      </trkpt>
      <trkpt lat="44.31714" lon="5.875">
        <ele>727.3747559</ele>
        <time>2013-04-05T11:06:29Z</time>
      </trkpt>
      <trkpt lat="44.31706" lon="5.875">
        <ele>726.4133301</ele>
        <time>2013-04-05T11:06:31Z</time>
      </trkpt>
      <trkpt lat="44.31696" lon="5.875">
        <ele>724.4907227</ele>
        <time>2013-04-05T11:06:34Z</time>
      </trkpt>
      <trkpt lat="44.31682" lon="5.87492">
        <ele>722.0874023</ele>
        <time>2013-04-05T11:06:38Z</time>
      </trkpt>
      <trkpt lat="44.31678" lon="5.87488">
        <ele>721.1262207</ele>
        <time>2013-04-05T11:06:40Z</time>
      </trkpt>
      <trkpt lat="44.31683" lon="5.8743">
        <ele>717.2810059</ele>
        <time>2013-04-05T11:06:47Z</time>
      </trkpt>
      <trkpt lat="44.31685" lon="5.87422">
        <ele>717.2810059</ele>
        <time>2013-04-05T11:06:48Z</time>
      </trkpt>
      <trkpt lat="44.31684" lon="5.87368">
        <ele>713.4355469</ele>
        <time>2013-04-05T11:06:55Z</time>
      </trkpt>
      <trkpt lat="44.31675" lon="5.87357">
        <ele>711.9936523</ele>
        <time>2013-04-05T11:06:57Z</time>
      </trkpt>
      <trkpt lat="44.3167" lon="5.87353">
        <ele>711.5129395</ele>
        <time>2013-04-05T11:06:58Z</time>
      </trkpt>
      <trkpt lat="44.31655" lon="5.87341">
        <ele>710.0708008</ele>
        <time>2013-04-05T11:07:01Z</time>
      </trkpt>
      <trkpt lat="44.3164" lon="5.87329">
        <ele>706.7062988</ele>
        <time>2013-04-05T11:07:04Z</time>
      </trkpt>
      <trkpt lat="44.31636" lon="5.87312">
        <ele>705.2644043</ele>
        <time>2013-04-05T11:07:06Z</time>
      </trkpt>
      <trkpt lat="44.31636" lon="5.87294">
        <ele>703.8225098</ele>
        <time>2013-04-05T11:07:08Z</time>
      </trkpt>
      <trkpt lat="44.31638" lon="5.87274">
        <ele>699.4963379</ele>
        <time>2013-04-05T11:07:10Z</time>
      </trkpt>
      <trkpt lat="44.31647" lon="5.8722">
        <ele>697.0930176</ele>
        <time>2013-04-05T11:07:15Z</time>
      </trkpt>
      <trkpt lat="44.3165" lon="5.87199">
        <ele>693.2478027</ele>
        <time>2013-04-05T11:07:17Z</time>
      </trkpt>
      <trkpt lat="44.31653" lon="5.87162">
        <ele>690.8444824</ele>
        <time>2013-04-05T11:07:21Z</time>
      </trkpt>
      <trkpt lat="44.31655" lon="5.87134">
        <ele>687.4799805</ele>
        <time>2013-04-05T11:07:24Z</time>
      </trkpt>
      <trkpt lat="44.31657" lon="5.87123">
        <ele>687.4799805</ele>
        <time>2013-04-05T11:07:25Z</time>
      </trkpt>
      <trkpt lat="44.31659" lon="5.87113">
        <ele>686.0380859</ele>
        <time>2013-04-05T11:07:26Z</time>
      </trkpt>
      <trkpt lat="44.31654" lon="5.87084">
        <ele>683.6345215</ele>
        <time>2013-04-05T11:07:29Z</time>
      </trkpt>
      <trkpt lat="44.31646" lon="5.87063">
        <ele>680.2700195</ele>
        <time>2013-04-05T11:07:31Z</time>
      </trkpt>
      <trkpt lat="44.31641" lon="5.87055">
        <ele>680.2700195</ele>
        <time>2013-04-05T11:07:32Z</time>
      </trkpt>
      <trkpt lat="44.3163" lon="5.87043">
        <ele>678.828125</ele>
        <time>2013-04-05T11:07:34Z</time>
      </trkpt>
      <trkpt lat="44.31623" lon="5.87038">
        <ele>677.8666992</ele>
        <time>2013-04-05T11:07:35Z</time>
      </trkpt>
      <trkpt lat="44.31593" lon="5.87015">
        <ele>674.9829102</ele>
        <time>2013-04-05T11:07:39Z</time>
      </trkpt>
      <trkpt lat="44.31576" lon="5.87002">
        <ele>673.0603027</ele>
        <time>2013-04-05T11:07:41Z</time>
      </trkpt>
      <trkpt lat="44.31558" lon="5.8699">
        <ele>671.6181641</ele>
        <time>2013-04-05T11:07:43Z</time>
      </trkpt>
      <trkpt lat="44.31523" lon="5.86966">
        <ele>667.2922363</ele>
        <time>2013-04-05T11:07:47Z</time>
      </trkpt>
      <trkpt lat="44.31514" lon="5.86961">
        <ele>667.2922363</ele>
        <time>2013-04-05T11:07:48Z</time>
      </trkpt>
      <trkpt lat="44.31499" lon="5.8695">
        <ele>666.3308105</ele>
        <time>2013-04-05T11:07:50Z</time>
      </trkpt>
      <trkpt lat="44.31475" lon="5.86934">
        <ele>662.9663086</ele>
        <time>2013-04-05T11:07:53Z</time>
      </trkpt>
      <trkpt lat="44.3146" lon="5.86923">
        <ele>662.4855957</ele>
        <time>2013-04-05T11:07:55Z</time>
      </trkpt>
      <trkpt lat="44.31448" lon="5.86912">
        <ele>661.0437012</ele>
        <time>2013-04-05T11:07:57Z</time>
      </trkpt>
      <trkpt lat="44.31444" lon="5.86906">
        <ele>660.5629883</ele>
        <time>2013-04-05T11:07:58Z</time>
      </trkpt>
      <trkpt lat="44.31413" lon="5.86849">
        <ele>657.6791992</ele>
        <time>2013-04-05T11:08:07Z</time>
      </trkpt>
      <trkpt lat="44.31381" lon="5.86779">
        <ele>652.3918457</ele>
        <time>2013-04-05T11:08:15Z</time>
      </trkpt>
      <trkpt lat="44.31377" lon="5.8677">
        <ele>652.3918457</ele>
        <time>2013-04-05T11:08:16Z</time>
      </trkpt>
      <trkpt lat="44.31372" lon="5.86762">
        <ele>650.949707</ele>
        <time>2013-04-05T11:08:17Z</time>
      </trkpt>
      <trkpt lat="44.31346" lon="5.86726">
        <ele>648.065918</ele>
        <time>2013-04-05T11:08:22Z</time>
      </trkpt>
      <trkpt lat="44.31339" lon="5.86719">
        <ele>648.065918</ele>
        <time>2013-04-05T11:08:23Z</time>
      </trkpt>
      <trkpt lat="44.31328" lon="5.86703">
        <ele>646.1433105</ele>
        <time>2013-04-05T11:08:25Z</time>
      </trkpt>
      <trkpt lat="44.31313" lon="5.86693">
        <ele>644.7011719</ele>
        <time>2013-04-05T11:08:27Z</time>
      </trkpt>
      <trkpt lat="44.31297" lon="5.86685">
        <ele>643.2592773</ele>
        <time>2013-04-05T11:08:29Z</time>
      </trkpt>
      <trkpt lat="44.31272" lon="5.86672">
        <ele>640.3754883</ele>
        <time>2013-04-05T11:08:32Z</time>
      </trkpt>
      <trkpt lat="44.31255" lon="5.86663">
        <ele>638.9335938</ele>
        <time>2013-04-05T11:08:34Z</time>
      </trkpt>
      <trkpt lat="44.31213" lon="5.86642">
        <ele>636.0495605</ele>
        <time>2013-04-05T11:08:39Z</time>
      </trkpt>
      <trkpt lat="44.31205" lon="5.86638">
        <ele>634.6074219</ele>
        <time>2013-04-05T11:08:40Z</time>
      </trkpt>
      <trkpt lat="44.31165" lon="5.86592">
        <ele>632.2041016</ele>
        <time>2013-04-05T11:08:46Z</time>
      </trkpt>
      <trkpt lat="44.3116" lon="5.86582">
        <ele>631.2429199</ele>
        <time>2013-04-05T11:08:47Z</time>
      </trkpt>
      <trkpt lat="44.31135" lon="5.86527">
        <ele>627.8781738</ele>
        <time>2013-04-05T11:08:52Z</time>
      </trkpt>
      <trkpt lat="44.3113" lon="5.86516">
        <ele>627.8781738</ele>
        <time>2013-04-05T11:08:53Z</time>
      </trkpt>
      <trkpt lat="44.31112" lon="5.86483">
        <ele>625.9555664</ele>
        <time>2013-04-05T11:08:56Z</time>
      </trkpt>
      <trkpt lat="44.31063" lon="5.8645">
        <ele>624.032959</ele>
        <time>2013-04-05T11:09:02Z</time>
      </trkpt>
      <trkpt lat="44.30998" lon="5.86441">
        <ele>621.6296387</ele>
        <time>2013-04-05T11:09:09Z</time>
      </trkpt>
      <trkpt lat="44.30978" lon="5.86438">
        <ele>619.7070313</ele>
        <time>2013-04-05T11:09:11Z</time>
      </trkpt>
      <trkpt lat="44.30937" lon="5.8643">
        <ele>615.8618164</ele>
        <time>2013-04-05T11:09:15Z</time>
      </trkpt>
      <trkpt lat="44.30927" lon="5.86428">
        <ele>615.8618164</ele>
        <time>2013-04-05T11:09:16Z</time>
      </trkpt>
      <trkpt lat="44.30884" lon="5.86417">
        <ele>613.4584961</ele>
        <time>2013-04-05T11:09:21Z</time>
      </trkpt>
      <trkpt lat="44.30857" lon="5.86395">
        <ele>611.5358887</ele>
        <time>2013-04-05T11:09:25Z</time>
      </trkpt>
      <trkpt lat="44.30782" lon="5.8628">
        <ele>608.6518555</ele>
        <time>2013-04-05T11:09:41Z</time>
      </trkpt>
      <trkpt lat="44.30766" lon="5.86257">
        <ele>607.2099609</ele>
        <time>2013-04-05T11:09:44Z</time>
      </trkpt>
      <trkpt lat="44.30729" lon="5.86199">
        <ele>603.8452148</ele>
        <time>2013-04-05T11:09:51Z</time>
      </trkpt>
      <trkpt lat="44.30719" lon="5.86183">
        <ele>603.364502</ele>
        <time>2013-04-05T11:09:53Z</time>
      </trkpt>
      <trkpt lat="44.30705" lon="5.86163">
        <ele>601.9226074</ele>
        <time>2013-04-05T11:09:56Z</time>
      </trkpt>
      <trkpt lat="44.30686" lon="5.86142">
        <ele>601.4418945</ele>
        <time>2013-04-05T11:10:04Z</time>
      </trkpt>
      <trkpt lat="44.30676" lon="5.86156">
        <ele>602.4030762</ele>
        <time>2013-04-05T11:10:08Z</time>
      </trkpt>
      <trkpt lat="44.30674" lon="5.86219">
        <ele>603.8452148</ele>
        <time>2013-04-05T11:10:22Z</time>
      </trkpt>
      <trkpt lat="44.30689" lon="5.863">
        <ele>605.7680664</ele>
        <time>2013-04-05T11:10:40Z</time>
      </trkpt>
      <trkpt lat="44.30724" lon="5.86377">
        <ele>607.6906738</ele>
        <time>2013-04-05T11:11:00Z</time>
      </trkpt>
      <trkpt lat="44.30757" lon="5.86446">
        <ele>611.0551758</ele>
        <time>2013-04-05T11:11:20Z</time>
      </trkpt>
      <trkpt lat="44.30786" lon="5.86518">
        <ele>614.4196777</ele>
        <time>2013-04-05T11:11:39Z</time>
      </trkpt>
      <trkpt lat="44.30799" lon="5.86578">
        <ele>617.3037109</ele>
        <time>2013-04-05T11:11:55Z</time>
      </trkpt>
      <trkpt lat="44.30809" lon="5.86644">
        <ele>620.1877441</ele>
        <time>2013-04-05T11:12:13Z</time>
      </trkpt>
      <trkpt lat="44.30814" lon="5.86692">
        <ele>623.0717773</ele>
        <time>2013-04-05T11:12:27Z</time>
      </trkpt>
      <trkpt lat="44.30825" lon="5.86768">
        <ele>626.9169922</ele>
        <time>2013-04-05T11:12:48Z</time>
      </trkpt>
      <trkpt lat="44.30829" lon="5.86846">
        <ele>629.8007813</ele>
        <time>2013-04-05T11:13:09Z</time>
      </trkpt>
      <trkpt lat="44.30824" lon="5.86911">
        <ele>633.1652832</ele>
        <time>2013-04-05T11:13:26Z</time>
      </trkpt>
      <trkpt lat="44.30808" lon="5.86981">
        <ele>635.0881348</ele>
        <time>2013-04-05T11:13:43Z</time>
      </trkpt>
      <trkpt lat="44.30779" lon="5.87052">
        <ele>637.4914551</ele>
        <time>2013-04-05T11:14:02Z</time>
      </trkpt>
      <trkpt lat="44.30736" lon="5.87123">
        <ele>639.4140625</ele>
        <time>2013-04-05T11:14:22Z</time>
      </trkpt>
      <trkpt lat="44.307" lon="5.87179">
        <ele>641.8173828</ele>
        <time>2013-04-05T11:14:40Z</time>
      </trkpt>
      <trkpt lat="44.30654" lon="5.87251">
        <ele>644.7011719</ele>
        <time>2013-04-05T11:15:03Z</time>
      </trkpt>
      <trkpt lat="44.30615" lon="5.87314">
        <ele>647.5852051</ele>
        <time>2013-04-05T11:15:23Z</time>
      </trkpt>
      <trkpt lat="44.30584" lon="5.8737">
        <ele>649.5078125</ele>
        <time>2013-04-05T11:15:40Z</time>
      </trkpt>
      <trkpt lat="44.30563" lon="5.8744">
        <ele>651.4304199</ele>
        <time>2013-04-05T11:15:58Z</time>
      </trkpt>
      <trkpt lat="44.30553" lon="5.87531">
        <ele>651.4304199</ele>
        <time>2013-04-05T11:16:15Z</time>
      </trkpt>
      <trkpt lat="44.30508" lon="5.87644">
        <ele>649.5078125</ele>
        <time>2013-04-05T11:16:31Z</time>
      </trkpt>
      <trkpt lat="44.30486" lon="5.87671">
        <ele>647.5852051</ele>
        <time>2013-04-05T11:16:35Z</time>
      </trkpt>
      <trkpt lat="44.30448" lon="5.87722">
        <ele>644.2207031</ele>
        <time>2013-04-05T11:16:41Z</time>
      </trkpt>
      <trkpt lat="44.30441" lon="5.87731">
        <ele>644.2207031</ele>
        <time>2013-04-05T11:16:42Z</time>
      </trkpt>
      <trkpt lat="44.30427" lon="5.8775">
        <ele>642.7788086</ele>
        <time>2013-04-05T11:16:44Z</time>
      </trkpt>
      <trkpt lat="44.30415" lon="5.87773">
        <ele>640.855957</ele>
        <time>2013-04-05T11:16:46Z</time>
      </trkpt>
      <trkpt lat="44.30398" lon="5.87812">
        <ele>638.4528809</ele>
        <time>2013-04-05T11:16:49Z</time>
      </trkpt>
      <trkpt lat="44.30389" lon="5.87841">
        <ele>637.0107422</ele>
        <time>2013-04-05T11:16:51Z</time>
      </trkpt>
      <trkpt lat="44.30382" lon="5.87873">
        <ele>635.0881348</ele>
        <time>2013-04-05T11:16:53Z</time>
      </trkpt>
      <trkpt lat="44.30376" lon="5.87907">
        <ele>633.6459961</ele>
        <time>2013-04-05T11:16:55Z</time>
      </trkpt>
      <trkpt lat="44.30376" lon="5.87944">
        <ele>628.8395996</ele>
        <time>2013-04-05T11:16:57Z</time>
      </trkpt>
      <trkpt lat="44.30376" lon="5.87962">
        <ele>628.8395996</ele>
        <time>2013-04-05T11:16:58Z</time>
      </trkpt>
      <trkpt lat="44.30381" lon="5.88">
        <ele>627.3977051</ele>
        <time>2013-04-05T11:17:00Z</time>
      </trkpt>
      <trkpt lat="44.30384" lon="5.88038">
        <ele>625.4748535</ele>
        <time>2013-04-05T11:17:02Z</time>
      </trkpt>
      <trkpt lat="44.30385" lon="5.88075">
        <ele>621.6296387</ele>
        <time>2013-04-05T11:17:04Z</time>
      </trkpt>
      <trkpt lat="44.30385" lon="5.88094">
        <ele>621.6296387</ele>
        <time>2013-04-05T11:17:05Z</time>
      </trkpt>
      <trkpt lat="44.30381" lon="5.88152">
        <ele>618.7456055</ele>
        <time>2013-04-05T11:17:08Z</time>
      </trkpt>
      <trkpt lat="44.30379" lon="5.88172">
        <ele>618.7456055</ele>
        <time>2013-04-05T11:17:09Z</time>
      </trkpt>
      <trkpt lat="44.30373" lon="5.8821">
        <ele>615.3811035</ele>
        <time>2013-04-05T11:17:11Z</time>
      </trkpt>
      <trkpt lat="44.30371" lon="5.88229">
        <ele>615.3811035</ele>
        <time>2013-04-05T11:17:12Z</time>
      </trkpt>
      <trkpt lat="44.30368" lon="5.88264">
        <ele>612.9777832</ele>
        <time>2013-04-05T11:17:14Z</time>
      </trkpt>
      <trkpt lat="44.30368" lon="5.88296">
        <ele>612.0166016</ele>
        <time>2013-04-05T11:17:16Z</time>
      </trkpt>
      <trkpt lat="44.30371" lon="5.88327">
        <ele>607.6906738</ele>
        <time>2013-04-05T11:17:18Z</time>
      </trkpt>
      <trkpt lat="44.30374" lon="5.88342">
        <ele>607.6906738</ele>
        <time>2013-04-05T11:17:19Z</time>
      </trkpt>
      <trkpt lat="44.3038" lon="5.88373">
        <ele>605.7680664</ele>
        <time>2013-04-05T11:17:21Z</time>
      </trkpt>
      <trkpt lat="44.30388" lon="5.88404">
        <ele>604.3261719</ele>
        <time>2013-04-05T11:17:23Z</time>
      </trkpt>
      <trkpt lat="44.30403" lon="5.88449">
        <ele>601.9226074</ele>
        <time>2013-04-05T11:17:26Z</time>
      </trkpt>
      <trkpt lat="44.30433" lon="5.88552">
        <ele>600</ele>
        <time>2013-04-05T11:17:35Z</time>
      </trkpt>
      <trkpt lat="44.30435" lon="5.88558">
        <ele>599.5192871</ele>
        <time>2013-04-05T11:17:44Z</time>
      </trkpt>
      <trkpt lat="44.3044" lon="5.88588">
        <ele>599.0385742</ele>
        <time>2013-04-05T11:17:58Z</time>
      </trkpt>
      <trkpt lat="44.30441" lon="5.88594">
        <ele>599.0385742</ele>
        <time>2013-04-05T11:17:59Z</time>
      </trkpt>
      <trkpt lat="44.30447" lon="5.88694">
        <ele>598.5578613</ele>
        <time>2013-04-05T11:18:13Z</time>
      </trkpt>
      <trkpt lat="44.30464" lon="5.88813">
        <ele>595.6740723</ele>
        <time>2013-04-05T11:18:26Z</time>
      </trkpt>
      <trkpt lat="44.30456" lon="5.88924">
        <ele>592.7902832</ele>
        <time>2013-04-05T11:18:36Z</time>
      </trkpt>
      <trkpt lat="44.3046" lon="5.88976">
        <ele>590.3869629</ele>
        <time>2013-04-05T11:18:40Z</time>
      </trkpt>
      <trkpt lat="44.30466" lon="5.89032">
        <ele>588.4643555</ele>
        <time>2013-04-05T11:18:44Z</time>
      </trkpt>
      <trkpt lat="44.30471" lon="5.89076">
        <ele>586.060791</ele>
        <time>2013-04-05T11:18:47Z</time>
      </trkpt>
      <trkpt lat="44.30491" lon="5.89256">
        <ele>583.6574707</ele>
        <time>2013-04-05T11:19:01Z</time>
      </trkpt>
      <trkpt lat="44.30498" lon="5.89318">
        <ele>584.1381836</ele>
        <time>2013-04-05T11:19:12Z</time>
      </trkpt>
      <trkpt lat="44.30503" lon="5.89323">
        <ele>583.6574707</ele>
        <time>2013-04-05T11:19:14Z</time>
      </trkpt>
      <trkpt lat="44.30553" lon="5.89308">
        <ele>582.6962891</ele>
        <time>2013-04-05T11:19:26Z</time>
      </trkpt>
      <trkpt lat="44.30658" lon="5.89276">
        <ele>583.1767578</ele>
        <time>2013-04-05T11:19:48Z</time>
      </trkpt>
      <trkpt lat="44.30782" lon="5.89239">
        <ele>583.1767578</ele>
        <time>2013-04-05T11:20:15Z</time>
      </trkpt>
      <trkpt lat="44.3083" lon="5.89225">
        <ele>586.060791</ele>
        <time>2013-04-05T11:20:28Z</time>
      </trkpt>
      <trkpt lat="44.30834" lon="5.89224">
        <ele>586.060791</ele>
        <time>2013-04-05T11:20:29Z</time>
      </trkpt>
      <trkpt lat="44.30905" lon="5.89202">
        <ele>589.90625</ele>
        <time>2013-04-05T11:20:50Z</time>
      </trkpt>
      <trkpt lat="44.30912" lon="5.892">
        <ele>590.8674316</ele>
        <time>2013-04-05T11:20:52Z</time>
      </trkpt>
      <trkpt lat="44.30985" lon="5.89179">
        <ele>592.7902832</ele>
        <time>2013-04-05T11:21:16Z</time>
      </trkpt>
      <trkpt lat="44.31058" lon="5.89164">
        <ele>593.270752</ele>
        <time>2013-04-05T11:21:37Z</time>
      </trkpt>
      <trkpt lat="44.31152" lon="5.89151">
        <ele>593.7514648</ele>
        <time>2013-04-05T11:22:01Z</time>
      </trkpt>
      <trkpt lat="44.31244" lon="5.89136">
        <ele>595.1933594</ele>
        <time>2013-04-05T11:22:24Z</time>
      </trkpt>
      <trkpt lat="44.31316" lon="5.89123">
        <ele>595.6740723</ele>
        <time>2013-04-05T11:22:43Z</time>
      </trkpt>
      <trkpt lat="44.3141" lon="5.89108">
        <ele>594.2321777</ele>
        <time>2013-04-05T11:23:02Z</time>
      </trkpt>
      <trkpt lat="44.31512" lon="5.89095">
        <ele>594.7126465</ele>
        <time>2013-04-05T11:23:23Z</time>
      </trkpt>
      <trkpt lat="44.31576" lon="5.89097">
        <ele>591.3481445</ele>
        <time>2013-04-05T11:23:34Z</time>
      </trkpt>
      <trkpt lat="44.31688" lon="5.89093">
        <ele>589.4255371</ele>
        <time>2013-04-05T11:23:50Z</time>
      </trkpt>
      <trkpt lat="44.31787" lon="5.89051">
        <ele>586.5415039</ele>
        <time>2013-04-05T11:24:05Z</time>
      </trkpt>
      <trkpt lat="44.31861" lon="5.89">
        <ele>583.1767578</ele>
        <time>2013-04-05T11:24:17Z</time>
      </trkpt>
      <trkpt lat="44.31953" lon="5.89">
        <ele>580.7736816</ele>
        <time>2013-04-05T11:24:30Z</time>
      </trkpt>
      <trkpt lat="44.31994" lon="5.89034">
        <ele>580.2929688</ele>
        <time>2013-04-05T11:24:37Z</time>
      </trkpt>
      <trkpt lat="44.32087" lon="5.89064">
        <ele>577.4091797</ele>
        <time>2013-04-05T11:24:51Z</time>
      </trkpt>
      <trkpt lat="44.32115" lon="5.89069">
        <ele>575.967041</ele>
        <time>2013-04-05T11:24:55Z</time>
      </trkpt>
      <trkpt lat="44.3223" lon="5.89104">
        <ele>575.967041</ele>
        <time>2013-04-05T11:25:13Z</time>
      </trkpt>
      <trkpt lat="44.32378" lon="5.89151">
        <ele>576.9284668</ele>
        <time>2013-04-05T11:25:38Z</time>
      </trkpt>
      <trkpt lat="44.32516" lon="5.89194">
        <ele>576.4477539</ele>
        <time>2013-04-05T11:26:01Z</time>
      </trkpt>
      <trkpt lat="44.32609" lon="5.89239">
        <ele>577.4091797</ele>
        <time>2013-04-05T11:26:19Z</time>
      </trkpt>
      <trkpt lat="44.32695" lon="5.89302">
        <ele>577.4091797</ele>
        <time>2013-04-05T11:26:37Z</time>
      </trkpt>
      <trkpt lat="44.32833" lon="5.894">
        <ele>577.4091797</ele>
        <time>2013-04-05T11:27:03Z</time>
      </trkpt>
      <trkpt lat="44.32946" lon="5.89474">
        <ele>577.8896484</ele>
        <time>2013-04-05T11:27:24Z</time>
      </trkpt>
      <trkpt lat="44.33051" lon="5.89518">
        <ele>577.4091797</ele>
        <time>2013-04-05T11:27:43Z</time>
      </trkpt>
      <trkpt lat="44.33182" lon="5.89562">
        <ele>577.8896484</ele>
        <time>2013-04-05T11:28:07Z</time>
      </trkpt>
      <trkpt lat="44.3332" lon="5.89614">
        <ele>577.8896484</ele>
        <time>2013-04-05T11:28:32Z</time>
      </trkpt>
      <trkpt lat="44.33438" lon="5.89668">
        <ele>577.4091797</ele>
        <time>2013-04-05T11:28:54Z</time>
      </trkpt>
      <trkpt lat="44.33548" lon="5.89722">
        <ele>577.4091797</ele>
        <time>2013-04-05T11:29:14Z</time>
      </trkpt>
      <trkpt lat="44.33668" lon="5.89783">
        <ele>577.8896484</ele>
        <time>2013-04-05T11:29:35Z</time>
      </trkpt>
      <trkpt lat="44.33725" lon="5.89815">
        <ele>575.967041</ele>
        <time>2013-04-05T11:29:44Z</time>
      </trkpt>
      <trkpt lat="44.33801" lon="5.89876">
        <ele>577.8896484</ele>
        <time>2013-04-05T11:29:57Z</time>
      </trkpt>
      <trkpt lat="44.33857" lon="5.89918">
        <ele>581.7348633</ele>
        <time>2013-04-05T11:30:13Z</time>
      </trkpt>
      <trkpt lat="44.33906" lon="5.89965">
        <ele>582.6962891</ele>
        <time>2013-04-05T11:30:29Z</time>
      </trkpt>
      <trkpt lat="44.33972" lon="5.90039">
        <ele>581.7348633</ele>
        <time>2013-04-05T11:30:48Z</time>
      </trkpt>
      <trkpt lat="44.33987" lon="5.90055">
        <ele>581.7348633</ele>
        <time>2013-04-05T11:30:51Z</time>
      </trkpt>
      <trkpt lat="44.34051" lon="5.90115">
        <ele>584.6188965</ele>
        <time>2013-04-05T11:31:08Z</time>
      </trkpt>
      <trkpt lat="44.34086" lon="5.90147">
        <ele>587.5026855</ele>
        <time>2013-04-05T11:31:22Z</time>
      </trkpt>
      <trkpt lat="44.3414" lon="5.90201">
        <ele>588.9450684</ele>
        <time>2013-04-05T11:31:43Z</time>
      </trkpt>
      <trkpt lat="44.34146" lon="5.90207">
        <ele>588.9450684</ele>
        <time>2013-04-05T11:31:45Z</time>
      </trkpt>
      <trkpt lat="44.34195" lon="5.90269">
        <ele>584.6188965</ele>
        <time>2013-04-05T11:31:56Z</time>
      </trkpt>
      <trkpt lat="44.34201" lon="5.90277">
        <ele>584.6188965</ele>
        <time>2013-04-05T11:31:57Z</time>
      </trkpt>
      <trkpt lat="44.34241" lon="5.90326">
        <ele>580.7736816</ele>
        <time>2013-04-05T11:32:03Z</time>
      </trkpt>
      <trkpt lat="44.34247" lon="5.90334">
        <ele>580.7736816</ele>
        <time>2013-04-05T11:32:04Z</time>
      </trkpt>
      <trkpt lat="44.34261" lon="5.90352">
        <ele>578.8510742</ele>
        <time>2013-04-05T11:32:06Z</time>
      </trkpt>
      <trkpt lat="44.3432" lon="5.90416">
        <ele>575.4863281</ele>
        <time>2013-04-05T11:32:14Z</time>
      </trkpt>
      <trkpt lat="44.34376" lon="5.9045">
        <ele>578.8510742</ele>
        <time>2013-04-05T11:32:24Z</time>
      </trkpt>
      <trkpt lat="44.34391" lon="5.90457">
        <ele>580.7736816</ele>
        <time>2013-04-05T11:32:29Z</time>
      </trkpt>
      <trkpt lat="44.34403" lon="5.90466">
        <ele>581.2543945</ele>
        <time>2013-04-05T11:32:33Z</time>
      </trkpt>
      <trkpt lat="44.3441" lon="5.90485">
        <ele>579.8122559</ele>
        <time>2013-04-05T11:32:37Z</time>
      </trkpt>
      <trkpt lat="44.34486" lon="5.90558">
        <ele>577.8896484</ele>
        <time>2013-04-05T11:32:52Z</time>
      </trkpt>
      <trkpt lat="44.34565" lon="5.90624">
        <ele>577.8896484</ele>
        <time>2013-04-05T11:33:09Z</time>
      </trkpt>
      <trkpt lat="44.34651" lon="5.90693">
        <ele>575.967041</ele>
        <time>2013-04-05T11:33:27Z</time>
      </trkpt>
      <trkpt lat="44.34689" lon="5.90716">
        <ele>573.083252</ele>
        <time>2013-04-05T11:33:32Z</time>
      </trkpt>
      <trkpt lat="44.34724" lon="5.9074">
        <ele>570.6796875</ele>
        <time>2013-04-05T11:33:36Z</time>
      </trkpt>
      <trkpt lat="44.3485" lon="5.90842">
        <ele>567.7956543</ele>
        <time>2013-04-05T11:33:52Z</time>
      </trkpt>
      <trkpt lat="44.34945" lon="5.90915">
        <ele>565.873291</ele>
        <time>2013-04-05T11:34:07Z</time>
      </trkpt>
      <trkpt lat="44.34957" lon="5.90924">
        <ele>564.9118652</ele>
        <time>2013-04-05T11:34:09Z</time>
      </trkpt>
      <trkpt lat="44.35006" lon="5.90968">
        <ele>567.3151855</ele>
        <time>2013-04-05T11:34:21Z</time>
      </trkpt>
      <trkpt lat="44.35052" lon="5.91011">
        <ele>568.7570801</ele>
        <time>2013-04-05T11:34:37Z</time>
      </trkpt>
      <trkpt lat="44.35116" lon="5.91071">
        <ele>570.6796875</ele>
        <time>2013-04-05T11:34:59Z</time>
      </trkpt>
      <trkpt lat="44.35177" lon="5.91128">
        <ele>573.083252</ele>
        <time>2013-04-05T11:35:20Z</time>
      </trkpt>
      <trkpt lat="44.35256" lon="5.912">
        <ele>575.0058594</ele>
        <time>2013-04-05T11:35:47Z</time>
      </trkpt>
      <trkpt lat="44.35327" lon="5.91259">
        <ele>575.4863281</ele>
        <time>2013-04-05T11:36:09Z</time>
      </trkpt>
      <trkpt lat="44.35425" lon="5.91336">
        <ele>576.4477539</ele>
        <time>2013-04-05T11:36:37Z</time>
      </trkpt>
      <trkpt lat="44.35506" lon="5.91387">
        <ele>578.3703613</ele>
        <time>2013-04-05T11:36:59Z</time>
      </trkpt>
      <trkpt lat="44.35575" lon="5.91432">
        <ele>577.4091797</ele>
        <time>2013-04-05T11:37:16Z</time>
      </trkpt>
      <trkpt lat="44.35655" lon="5.91485">
        <ele>575.0058594</ele>
        <time>2013-04-05T11:37:32Z</time>
      </trkpt>
      <trkpt lat="44.35739" lon="5.91545">
        <ele>574.5251465</ele>
        <time>2013-04-05T11:37:49Z</time>
      </trkpt>
      <trkpt lat="44.35869" lon="5.91634">
        <ele>574.0444336</ele>
        <time>2013-04-05T11:38:16Z</time>
      </trkpt>
      <trkpt lat="44.35975" lon="5.91708">
        <ele>575.0058594</ele>
        <time>2013-04-05T11:38:38Z</time>
      </trkpt>
      <trkpt lat="44.36068" lon="5.91773">
        <ele>575.0058594</ele>
        <time>2013-04-05T11:38:57Z</time>
      </trkpt>
      <trkpt lat="44.36151" lon="5.9183">
        <ele>574.5251465</ele>
        <time>2013-04-05T11:39:15Z</time>
      </trkpt>
      <trkpt lat="44.36274" lon="5.91915">
        <ele>574.5251465</ele>
        <time>2013-04-05T11:39:41Z</time>
      </trkpt>
      <trkpt lat="44.36381" lon="5.91988">
        <ele>575.0058594</ele>
        <time>2013-04-05T11:40:02Z</time>
      </trkpt>
      <trkpt lat="44.36512" lon="5.92078">
        <ele>572.6025391</ele>
        <time>2013-04-05T11:40:27Z</time>
      </trkpt>
      <trkpt lat="44.36613" lon="5.92141">
        <ele>573.083252</ele>
        <time>2013-04-05T11:40:47Z</time>
      </trkpt>
      <trkpt lat="44.36718" lon="5.92174">
        <ele>573.083252</ele>
        <time>2013-04-05T11:41:08Z</time>
      </trkpt>
      <trkpt lat="44.36795" lon="5.92202">
        <ele>575.4863281</ele>
        <time>2013-04-05T11:41:26Z</time>
      </trkpt>
      <trkpt lat="44.36801" lon="5.92206">
        <ele>576.9284668</ele>
        <time>2013-04-05T11:41:29Z</time>
      </trkpt>
      <trkpt lat="44.36831" lon="5.92222">
        <ele>578.8510742</ele>
        <time>2013-04-05T11:41:48Z</time>
      </trkpt>
      <trkpt lat="44.36831" lon="5.92222">
        <ele>579.8122559</ele>
        <time>2013-04-05T11:43:17Z</time>
      </trkpt>
      <trkpt lat="44.36841" lon="5.92228">
        <ele>579.331543</ele>
        <time>2013-04-05T11:43:22Z</time>
      </trkpt>
      <trkpt lat="44.36864" lon="5.92241">
        <ele>577.8896484</ele>
        <time>2013-04-05T11:43:28Z</time>
      </trkpt>
      <trkpt lat="44.36907" lon="5.92267">
        <ele>574.5251465</ele>
        <time>2013-04-05T11:43:36Z</time>
      </trkpt>
      <trkpt lat="44.36996" lon="5.92337">
        <ele>573.083252</ele>
        <time>2013-04-05T11:43:51Z</time>
      </trkpt>
      <trkpt lat="44.37007" lon="5.92346">
        <ele>572.6025391</ele>
        <time>2013-04-05T11:43:53Z</time>
      </trkpt>
      <trkpt lat="44.37098" lon="5.92424">
        <ele>570.6796875</ele>
        <time>2013-04-05T11:44:09Z</time>
      </trkpt>
      <trkpt lat="44.37202" lon="5.92515">
        <ele>571.1604004</ele>
        <time>2013-04-05T11:44:29Z</time>
      </trkpt>
      <trkpt lat="44.37244" lon="5.92554">
        <ele>571.6408691</ele>
        <time>2013-04-05T11:44:39Z</time>
      </trkpt>
      <trkpt lat="44.37316" lon="5.92619">
        <ele>574.0444336</ele>
        <time>2013-04-05T11:45:00Z</time>
      </trkpt>
      <trkpt lat="44.37374" lon="5.92664">
        <ele>575.967041</ele>
        <time>2013-04-05T11:45:20Z</time>
      </trkpt>
      <trkpt lat="44.37388" lon="5.92674">
        <ele>575.4863281</ele>
        <time>2013-04-05T11:45:24Z</time>
      </trkpt>
      <trkpt lat="44.37473" lon="5.92733">
        <ele>575.4863281</ele>
        <time>2013-04-05T11:45:44Z</time>
      </trkpt>
      <trkpt lat="44.37549" lon="5.92785">
        <ele>574.5251465</ele>
        <time>2013-04-05T11:46:01Z</time>
      </trkpt>
      <trkpt lat="44.37622" lon="5.92832">
        <ele>574.5251465</ele>
        <time>2013-04-05T11:46:16Z</time>
      </trkpt>
      <trkpt lat="44.37636" lon="5.92843">
        <ele>574.0444336</ele>
        <time>2013-04-05T11:46:19Z</time>
      </trkpt>
      <trkpt lat="44.37686" lon="5.92878">
        <ele>574.0444336</ele>
        <time>2013-04-05T11:46:29Z</time>
      </trkpt>
      <trkpt lat="44.37797" lon="5.92952">
        <ele>573.5639648</ele>
        <time>2013-04-05T11:46:50Z</time>
      </trkpt>
      <trkpt lat="44.37907" lon="5.93027">
        <ele>574.0444336</ele>
        <time>2013-04-05T11:47:11Z</time>
      </trkpt>
      <trkpt lat="44.3799" lon="5.93087">
        <ele>574.5251465</ele>
        <time>2013-04-05T11:47:29Z</time>
      </trkpt>
      <trkpt lat="44.38076" lon="5.93151">
        <ele>575.4863281</ele>
        <time>2013-04-05T11:47:50Z</time>
      </trkpt>
      <trkpt lat="44.38168" lon="5.93216">
        <ele>576.4477539</ele>
        <time>2013-04-05T11:48:13Z</time>
      </trkpt>
      <trkpt lat="44.38188" lon="5.93231">
        <ele>575.967041</ele>
        <time>2013-04-05T11:48:18Z</time>
      </trkpt>
      <trkpt lat="44.38208" lon="5.93245">
        <ele>576.4477539</ele>
        <time>2013-04-05T11:48:23Z</time>
      </trkpt>
      <trkpt lat="44.38256" lon="5.93276">
        <ele>576.4477539</ele>
        <time>2013-04-05T11:48:33Z</time>
      </trkpt>
      <trkpt lat="44.38342" lon="5.93334">
        <ele>575.0058594</ele>
        <time>2013-04-05T11:48:51Z</time>
      </trkpt>
      <trkpt lat="44.38381" lon="5.9336">
        <ele>575.0058594</ele>
        <time>2013-04-05T11:48:59Z</time>
      </trkpt>
      <trkpt lat="44.38491" lon="5.93436">
        <ele>575.4863281</ele>
        <time>2013-04-05T11:49:22Z</time>
      </trkpt>
      <trkpt lat="44.38504" lon="5.93445">
        <ele>575.0058594</ele>
        <time>2013-04-05T11:49:25Z</time>
      </trkpt>
      <trkpt lat="44.38598" lon="5.93517">
        <ele>576.4477539</ele>
        <time>2013-04-05T11:49:48Z</time>
      </trkpt>
      <trkpt lat="44.38643" lon="5.9355">
        <ele>578.3703613</ele>
        <time>2013-04-05T11:50:04Z</time>
      </trkpt>
      <trkpt lat="44.3869" lon="5.93581">
        <ele>581.7348633</ele>
        <time>2013-04-05T11:50:23Z</time>
      </trkpt>
      <trkpt lat="44.38708" lon="5.93595">
        <ele>581.7348633</ele>
        <time>2013-04-05T11:50:29Z</time>
      </trkpt>
      <trkpt lat="44.38705" lon="5.9366">
        <ele>581.7348633</ele>
        <time>2013-04-05T11:50:41Z</time>
      </trkpt>
      <trkpt lat="44.38697" lon="5.93795">
        <ele>578.3703613</ele>
        <time>2013-04-05T11:50:58Z</time>
      </trkpt>
      <trkpt lat="44.38693" lon="5.93837">
        <ele>576.9284668</ele>
        <time>2013-04-05T11:51:02Z</time>
      </trkpt>
      <trkpt lat="44.38697" lon="5.93873">
        <ele>575.0058594</ele>
        <time>2013-04-05T11:51:05Z</time>
      </trkpt>
      <trkpt lat="44.38668" lon="5.93907">
        <ele>573.083252</ele>
        <time>2013-04-05T11:51:11Z</time>
      </trkpt>
      <trkpt lat="44.3866" lon="5.93909">
        <ele>572.1218262</ele>
        <time>2013-04-05T11:51:12Z</time>
      </trkpt>
      <trkpt lat="44.38635" lon="5.93913">
        <ele>570.6796875</ele>
        <time>2013-04-05T11:51:15Z</time>
      </trkpt>
      <trkpt lat="44.3861" lon="5.93918">
        <ele>569.237793</ele>
        <time>2013-04-05T11:51:18Z</time>
      </trkpt>
      <trkpt lat="44.38595" lon="5.93921">
        <ele>567.7956543</ele>
        <time>2013-04-05T11:51:20Z</time>
      </trkpt>
      <trkpt lat="44.38564" lon="5.93928">
        <ele>564.4311523</ele>
        <time>2013-04-05T11:51:24Z</time>
      </trkpt>
      <trkpt lat="44.38556" lon="5.9393">
        <ele>564.4311523</ele>
        <time>2013-04-05T11:51:25Z</time>
      </trkpt>
      <trkpt lat="44.38523" lon="5.93936">
        <ele>562.0280762</ele>
        <time>2013-04-05T11:51:29Z</time>
      </trkpt>
      <trkpt lat="44.38502" lon="5.93963">
        <ele>559.144043</ele>
        <time>2013-04-05T11:51:34Z</time>
      </trkpt>
      <trkpt lat="44.38502" lon="5.93978">
        <ele>559.144043</ele>
        <time>2013-04-05T11:51:36Z</time>
      </trkpt>
      <trkpt lat="44.38508" lon="5.94029">
        <ele>559.6247559</ele>
        <time>2013-04-05T11:51:43Z</time>
      </trkpt>
      <trkpt lat="44.38508" lon="5.94053">
        <ele>559.144043</ele>
        <time>2013-04-05T11:51:47Z</time>
      </trkpt>
      <trkpt lat="44.38507" lon="5.9407">
        <ele>561.5473633</ele>
        <time>2013-04-05T11:51:50Z</time>
      </trkpt>
      <trkpt lat="44.38501" lon="5.9414">
        <ele>560.5859375</ele>
        <time>2013-04-05T11:52:03Z</time>
      </trkpt>
      <trkpt lat="44.38493" lon="5.94204">
        <ele>561.5473633</ele>
        <time>2013-04-05T11:52:17Z</time>
      </trkpt>
      <trkpt lat="44.38489" lon="5.94237">
        <ele>561.5473633</ele>
        <time>2013-04-05T11:52:26Z</time>
      </trkpt>
      <trkpt lat="44.38498" lon="5.94242">
        <ele>561.0666504</ele>
        <time>2013-04-05T11:52:31Z</time>
      </trkpt>
      <trkpt lat="44.3849" lon="5.9423">
        <ele>561.5473633</ele>
        <time>2013-04-05T11:52:40Z</time>
      </trkpt>
      <trkpt lat="44.38491" lon="5.94219">
        <ele>562.0280762</ele>
        <time>2013-04-05T11:52:53Z</time>
      </trkpt>
      <trkpt lat="44.38491" lon="5.94219">
        <ele>561.5473633</ele>
        <time>2013-04-05T11:53:06Z</time>
      </trkpt>
    </trkseg>
  </trk>
</gpx>